<?xml version="1.0" encoding="UTF-8" standalone="no" ?>
<gpx xmlns="http://www.topografix.com/GPX/1/1" xmlns:xsi="http://www.w3.org/2001/XMLSchema-instance" xsi:schemaLocation="http://www.topografix.com/GPX/1/1 http://www.topografix.com/GPX/1/1/gpx.xsd" version="1.1" creator="VisuGPX - https://www.visugpx.com">
  <metadata>
    <name>Autour de St Jorioz</name>
    <desc><![CDATA[Une ballade au environ d\'Annecy]]></desc>
  </metadata>
  <trk>
    <name><![CDATA[Autour de St Jorioz 1 deplacement]]></name>
    <trkseg>
      <trkpt lat="45.82556" lon="6.1514">
        <ele>495.216187</ele>
        <time>2011-03-12T14:07:57Z</time>
      </trkpt>
      <trkpt lat="45.8256" lon="6.15138">
        <ele>495.696899</ele>
        <time>2011-03-12T14:08:01Z</time>
      </trkpt>
      <trkpt lat="45.82566" lon="6.15129">
        <ele>496.658325</ele>
        <time>2011-03-12T14:08:12Z</time>
      </trkpt>
      <trkpt lat="45.82572" lon="6.15119">
        <ele>496.177734</ele>
        <time>2011-03-12T14:08:23Z</time>
      </trkpt>
      <trkpt lat="45.82569" lon="6.15112">
        <ele>496.177734</ele>
        <time>2011-03-12T14:08:33Z</time>
      </trkpt>
      <trkpt lat="45.82564" lon="6.15105">
        <ele>496.177734</ele>
        <time>2011-03-12T14:08:42Z</time>
      </trkpt>
      <trkpt lat="45.82563" lon="6.15103">
        <ele>496.177734</ele>
        <time>2011-03-12T14:08:47Z</time>
      </trkpt>
      <trkpt lat="45.82552" lon="6.1509">
        <ele>496.658325</ele>
        <time>2011-03-12T14:08:59Z</time>
      </trkpt>
      <trkpt lat="45.82539" lon="6.15078">
        <ele>496.658325</ele>
        <time>2011-03-12T14:09:12Z</time>
      </trkpt>
      <trkpt lat="45.82528" lon="6.15066">
        <ele>497.619629</ele>
        <time>2011-03-12T14:09:24Z</time>
      </trkpt>
      <trkpt lat="45.82519" lon="6.15057">
        <ele>498.580933</ele>
        <time>2011-03-12T14:09:34Z</time>
      </trkpt>
      <trkpt lat="45.82507" lon="6.15047">
        <ele>499.542236</ele>
        <time>2011-03-12T14:09:46Z</time>
      </trkpt>
      <trkpt lat="45.82495" lon="6.15036">
        <ele>500.022949</ele>
        <time>2011-03-12T14:09:58Z</time>
      </trkpt>
      <trkpt lat="45.82482" lon="6.15023">
        <ele>500.984131</ele>
        <time>2011-03-12T14:10:10Z</time>
      </trkpt>
      <trkpt lat="45.82468" lon="6.15007">
        <ele>500.984131</ele>
        <time>2011-03-12T14:10:24Z</time>
      </trkpt>
      <trkpt lat="45.82455" lon="6.1499">
        <ele>501.464844</ele>
        <time>2011-03-12T14:10:38Z</time>
      </trkpt>
      <trkpt lat="45.82438" lon="6.14976">
        <ele>501.464844</ele>
        <time>2011-03-12T14:10:54Z</time>
      </trkpt>
      <trkpt lat="45.82421" lon="6.14966">
        <ele>502.426147</ele>
        <time>2011-03-12T14:11:08Z</time>
      </trkpt>
      <trkpt lat="45.82403" lon="6.14949">
        <ele>502.906738</ele>
        <time>2011-03-12T14:11:25Z</time>
      </trkpt>
      <trkpt lat="45.82393" lon="6.14932">
        <ele>504.348877</ele>
        <time>2011-03-12T14:11:37Z</time>
      </trkpt>
      <trkpt lat="45.82385" lon="6.1491">
        <ele>505.310181</ele>
        <time>2011-03-12T14:11:51Z</time>
      </trkpt>
      <trkpt lat="45.82377" lon="6.14883">
        <ele>505.790894</ele>
        <time>2011-03-12T14:12:07Z</time>
      </trkpt>
      <trkpt lat="45.82372" lon="6.14855">
        <ele>506.271484</ele>
        <time>2011-03-12T14:12:22Z</time>
      </trkpt>
      <trkpt lat="45.82366" lon="6.1483">
        <ele>507.713501</ele>
        <time>2011-03-12T14:12:36Z</time>
      </trkpt>
      <trkpt lat="45.82364" lon="6.14811">
        <ele>509.155396</ele>
        <time>2011-03-12T14:12:47Z</time>
      </trkpt>
      <trkpt lat="45.82362" lon="6.14792">
        <ele>509.155396</ele>
        <time>2011-03-12T14:12:57Z</time>
      </trkpt>
      <trkpt lat="45.8236" lon="6.14784">
        <ele>510.116699</ele>
        <time>2011-03-12T14:13:02Z</time>
      </trkpt>
      <trkpt lat="45.82358" lon="6.14775">
        <ele>510.116699</ele>
        <time>2011-03-12T14:13:08Z</time>
      </trkpt>
      <trkpt lat="45.82356" lon="6.1477">
        <ele>510.59729</ele>
        <time>2011-03-12T14:13:11Z</time>
      </trkpt>
      <trkpt lat="45.82353" lon="6.14762">
        <ele>510.59729</ele>
        <time>2011-03-12T14:13:16Z</time>
      </trkpt>
      <trkpt lat="45.82343" lon="6.14737">
        <ele>512.52002</ele>
        <time>2011-03-12T14:13:30Z</time>
      </trkpt>
      <trkpt lat="45.82332" lon="6.14713">
        <ele>514.442627</ele>
        <time>2011-03-12T14:13:44Z</time>
      </trkpt>
      <trkpt lat="45.82323" lon="6.14691">
        <ele>515.404053</ele>
        <time>2011-03-12T14:13:57Z</time>
      </trkpt>
      <trkpt lat="45.82313" lon="6.14668">
        <ele>515.884644</ele>
        <time>2011-03-12T14:14:11Z</time>
      </trkpt>
      <trkpt lat="45.82302" lon="6.14651">
        <ele>517.807251</ele>
        <time>2011-03-12T14:14:23Z</time>
      </trkpt>
      <trkpt lat="45.82292" lon="6.14634">
        <ele>519.249268</ele>
        <time>2011-03-12T14:14:34Z</time>
      </trkpt>
      <trkpt lat="45.82285" lon="6.14621">
        <ele>520.210571</ele>
        <time>2011-03-12T14:14:42Z</time>
      </trkpt>
      <trkpt lat="45.8228" lon="6.14605">
        <ele>521.171997</ele>
        <time>2011-03-12T14:14:52Z</time>
      </trkpt>
      <trkpt lat="45.82276" lon="6.14594">
        <ele>521.652588</ele>
        <time>2011-03-12T14:14:59Z</time>
      </trkpt>
      <trkpt lat="45.82268" lon="6.14582">
        <ele>522.613892</ele>
        <time>2011-03-12T14:15:07Z</time>
      </trkpt>
      <trkpt lat="45.8226" lon="6.14564">
        <ele>523.575195</ele>
        <time>2011-03-12T14:15:19Z</time>
      </trkpt>
      <trkpt lat="45.82254" lon="6.14555">
        <ele>524.536499</ele>
        <time>2011-03-12T14:15:24Z</time>
      </trkpt>
      <trkpt lat="45.82251" lon="6.1454">
        <ele>525.978394</ele>
        <time>2011-03-12T14:15:33Z</time>
      </trkpt>
      <trkpt lat="45.82244" lon="6.14514">
        <ele>527.901001</ele>
        <time>2011-03-12T14:15:47Z</time>
      </trkpt>
      <trkpt lat="45.82234" lon="6.14491">
        <ele>529.34314</ele>
        <time>2011-03-12T14:16:01Z</time>
      </trkpt>
      <trkpt lat="45.8223" lon="6.14474">
        <ele>529.82373</ele>
        <time>2011-03-12T14:16:11Z</time>
      </trkpt>
      <trkpt lat="45.82225" lon="6.14454">
        <ele>529.82373</ele>
        <time>2011-03-12T14:16:23Z</time>
      </trkpt>
      <trkpt lat="45.8222" lon="6.14426">
        <ele>530.304443</ele>
        <time>2011-03-12T14:16:36Z</time>
      </trkpt>
      <trkpt lat="45.82214" lon="6.1441">
        <ele>530.785156</ele>
        <time>2011-03-12T14:16:47Z</time>
      </trkpt>
      <trkpt lat="45.82208" lon="6.14397">
        <ele>530.785156</ele>
        <time>2011-03-12T14:16:55Z</time>
      </trkpt>
      <trkpt lat="45.822" lon="6.14383">
        <ele>531.265747</ele>
        <time>2011-03-12T14:17:06Z</time>
      </trkpt>
      <trkpt lat="45.82197" lon="6.14367">
        <ele>532.707764</ele>
        <time>2011-03-12T14:17:16Z</time>
      </trkpt>
      <trkpt lat="45.82195" lon="6.14351">
        <ele>534.630371</ele>
        <time>2011-03-12T14:17:25Z</time>
      </trkpt>
      <trkpt lat="45.82191" lon="6.14334">
        <ele>536.072388</ele>
        <time>2011-03-12T14:17:34Z</time>
      </trkpt>
      <trkpt lat="45.8219" lon="6.14331">
        <ele>536.072388</ele>
        <time>2011-03-12T14:17:35Z</time>
      </trkpt>
      <trkpt lat="45.82176" lon="6.14306">
        <ele>537.033691</ele>
        <time>2011-03-12T14:17:46Z</time>
      </trkpt>
      <trkpt lat="45.82174" lon="6.14303">
        <ele>537.514282</ele>
        <time>2011-03-12T14:17:48Z</time>
      </trkpt>
      <trkpt lat="45.8217" lon="6.14301">
        <ele>537.994995</ele>
        <time>2011-03-12T14:17:51Z</time>
      </trkpt>
      <trkpt lat="45.82169" lon="6.14299">
        <ele>538.475708</ele>
        <time>2011-03-12T14:17:53Z</time>
      </trkpt>
      <trkpt lat="45.82161" lon="6.14278">
        <ele>541.359497</ele>
        <time>2011-03-12T14:18:06Z</time>
      </trkpt>
      <trkpt lat="45.82151" lon="6.14261">
        <ele>542.801514</ele>
        <time>2011-03-12T14:18:17Z</time>
      </trkpt>
      <trkpt lat="45.82138" lon="6.14244">
        <ele>544.243652</ele>
        <time>2011-03-12T14:18:28Z</time>
      </trkpt>
      <trkpt lat="45.82127" lon="6.14231">
        <ele>545.204834</ele>
        <time>2011-03-12T14:18:38Z</time>
      </trkpt>
      <trkpt lat="45.82116" lon="6.14219">
        <ele>547.127441</ele>
        <time>2011-03-12T14:18:48Z</time>
      </trkpt>
      <trkpt lat="45.82107" lon="6.14208">
        <ele>548.569336</ele>
        <time>2011-03-12T14:18:57Z</time>
      </trkpt>
      <trkpt lat="45.82099" lon="6.14198">
        <ele>549.530762</ele>
        <time>2011-03-12T14:19:06Z</time>
      </trkpt>
      <trkpt lat="45.82092" lon="6.1419">
        <ele>551.934082</ele>
        <time>2011-03-12T14:19:14Z</time>
      </trkpt>
      <trkpt lat="45.82089" lon="6.14186">
        <ele>551.453369</ele>
        <time>2011-03-12T14:19:17Z</time>
      </trkpt>
      <trkpt lat="45.82084" lon="6.14169">
        <ele>550.972656</ele>
        <time>2011-03-12T14:19:27Z</time>
      </trkpt>
      <trkpt lat="45.82083" lon="6.14159">
        <ele>550.972656</ele>
        <time>2011-03-12T14:19:34Z</time>
      </trkpt>
      <trkpt lat="45.82072" lon="6.1414">
        <ele>550.972656</ele>
        <time>2011-03-12T14:19:45Z</time>
      </trkpt>
      <trkpt lat="45.82064" lon="6.14131">
        <ele>551.453369</ele>
        <time>2011-03-12T14:19:55Z</time>
      </trkpt>
      <trkpt lat="45.82059" lon="6.1413">
        <ele>550.972656</ele>
        <time>2011-03-12T14:20:04Z</time>
      </trkpt>
      <trkpt lat="45.82054" lon="6.14133">
        <ele>550.972656</ele>
        <time>2011-03-12T14:20:12Z</time>
      </trkpt>
      <trkpt lat="45.82047" lon="6.14142">
        <ele>550.972656</ele>
        <time>2011-03-12T14:20:21Z</time>
      </trkpt>
      <trkpt lat="45.82038" lon="6.14151">
        <ele>551.934082</ele>
        <time>2011-03-12T14:20:30Z</time>
      </trkpt>
      <trkpt lat="45.8203" lon="6.14163">
        <ele>551.934082</ele>
        <time>2011-03-12T14:20:39Z</time>
      </trkpt>
      <trkpt lat="45.82028" lon="6.14168">
        <ele>552.414551</ele>
        <time>2011-03-12T14:20:43Z</time>
      </trkpt>
      <trkpt lat="45.82022" lon="6.14178">
        <ele>553.375977</ele>
        <time>2011-03-12T14:20:50Z</time>
      </trkpt>
      <trkpt lat="45.82021" lon="6.14187">
        <ele>554.337402</ele>
        <time>2011-03-12T14:20:55Z</time>
      </trkpt>
      <trkpt lat="45.82022" lon="6.14202">
        <ele>555.779297</ele>
        <time>2011-03-12T14:21:04Z</time>
      </trkpt>
      <trkpt lat="45.8202" lon="6.14213">
        <ele>556.26001</ele>
        <time>2011-03-12T14:21:12Z</time>
      </trkpt>
      <trkpt lat="45.82018" lon="6.14223">
        <ele>557.221436</ele>
        <time>2011-03-12T14:21:19Z</time>
      </trkpt>
      <trkpt lat="45.82015" lon="6.14233">
        <ele>557.702148</ele>
        <time>2011-03-12T14:21:25Z</time>
      </trkpt>
      <trkpt lat="45.82011" lon="6.1425">
        <ele>558.66333</ele>
        <time>2011-03-12T14:21:33Z</time>
      </trkpt>
      <trkpt lat="45.82009" lon="6.14265">
        <ele>560.585938</ele>
        <time>2011-03-12T14:21:42Z</time>
      </trkpt>
      <trkpt lat="45.82013" lon="6.14281">
        <ele>563.469971</ele>
        <time>2011-03-12T14:21:51Z</time>
      </trkpt>
      <trkpt lat="45.82013" lon="6.14282">
        <ele>563.950439</ele>
        <time>2011-03-12T14:21:52Z</time>
      </trkpt>
      <trkpt lat="45.82023" lon="6.14309">
        <ele>566.35376</ele>
        <time>2011-03-12T14:22:03Z</time>
      </trkpt>
      <trkpt lat="45.82027" lon="6.14323">
        <ele>567.315186</ele>
        <time>2011-03-12T14:22:10Z</time>
      </trkpt>
      <trkpt lat="45.82028" lon="6.14336">
        <ele>568.75708</ele>
        <time>2011-03-12T14:22:20Z</time>
      </trkpt>
      <trkpt lat="45.82026" lon="6.1435">
        <ele>570.198975</ele>
        <time>2011-03-12T14:22:29Z</time>
      </trkpt>
      <trkpt lat="45.82026" lon="6.14354">
        <ele>570.198975</ele>
        <time>2011-03-12T14:22:31Z</time>
      </trkpt>
      <trkpt lat="45.82023" lon="6.14361">
        <ele>571.640869</ele>
        <time>2011-03-12T14:22:39Z</time>
      </trkpt>
      <trkpt lat="45.82022" lon="6.1436">
        <ele>572.121826</ele>
        <time>2011-03-12T14:22:42Z</time>
      </trkpt>
      <trkpt lat="45.82018" lon="6.14346">
        <ele>573.563965</ele>
        <time>2011-03-12T14:22:54Z</time>
      </trkpt>
      <trkpt lat="45.8201" lon="6.14334">
        <ele>574.044434</ele>
        <time>2011-03-12T14:23:06Z</time>
      </trkpt>
      <trkpt lat="45.82002" lon="6.14329">
        <ele>575.005859</ele>
        <time>2011-03-12T14:23:15Z</time>
      </trkpt>
      <trkpt lat="45.81989" lon="6.14329">
        <ele>577.40918</ele>
        <time>2011-03-12T14:23:26Z</time>
      </trkpt>
      <trkpt lat="45.81976" lon="6.1433">
        <ele>579.812256</ele>
        <time>2011-03-12T14:23:37Z</time>
      </trkpt>
      <trkpt lat="45.81963" lon="6.1433">
        <ele>581.254395</ele>
        <time>2011-03-12T14:23:48Z</time>
      </trkpt>
      <trkpt lat="45.81958" lon="6.14328">
        <ele>581.734863</ele>
        <time>2011-03-12T14:23:59Z</time>
      </trkpt>
      <trkpt lat="45.81955" lon="6.14325">
        <ele>583.176758</ele>
        <time>2011-03-12T14:27:33Z</time>
      </trkpt>
      <trkpt lat="45.81955" lon="6.14313">
        <ele>584.138184</ele>
        <time>2011-03-12T14:27:42Z</time>
      </trkpt>
      <trkpt lat="45.81952" lon="6.14304">
        <ele>585.099609</ele>
        <time>2011-03-12T14:27:49Z</time>
      </trkpt>
      <trkpt lat="45.81947" lon="6.1429">
        <ele>587.021973</ele>
        <time>2011-03-12T14:27:59Z</time>
      </trkpt>
      <trkpt lat="45.81943" lon="6.14279">
        <ele>587.983398</ele>
        <time>2011-03-12T14:28:07Z</time>
      </trkpt>
      <trkpt lat="45.81939" lon="6.1427">
        <ele>588.464355</ele>
        <time>2011-03-12T14:28:15Z</time>
      </trkpt>
      <trkpt lat="45.81934" lon="6.14259">
        <ele>589.90625</ele>
        <time>2011-03-12T14:28:23Z</time>
      </trkpt>
      <trkpt lat="45.81934" lon="6.14248">
        <ele>591.828857</ele>
        <time>2011-03-12T14:28:31Z</time>
      </trkpt>
      <trkpt lat="45.81929" lon="6.14235">
        <ele>593.270752</ele>
        <time>2011-03-12T14:28:41Z</time>
      </trkpt>
      <trkpt lat="45.81925" lon="6.14225">
        <ele>594.232178</ele>
        <time>2011-03-12T14:28:48Z</time>
      </trkpt>
      <trkpt lat="45.8192" lon="6.14218">
        <ele>596.154785</ele>
        <time>2011-03-12T14:28:55Z</time>
      </trkpt>
      <trkpt lat="45.81913" lon="6.14211">
        <ele>598.557861</ele>
        <time>2011-03-12T14:29:06Z</time>
      </trkpt>
      <trkpt lat="45.81908" lon="6.14207">
        <ele>597.115967</ele>
        <time>2011-03-12T14:29:13Z</time>
      </trkpt>
      <trkpt lat="45.81901" lon="6.14201">
        <ele>596.635498</ele>
        <time>2011-03-12T14:29:20Z</time>
      </trkpt>
      <trkpt lat="45.81896" lon="6.14192">
        <ele>598.557861</ele>
        <time>2011-03-12T14:29:29Z</time>
      </trkpt>
      <trkpt lat="45.81889" lon="6.14186">
        <ele>600.480713</ele>
        <time>2011-03-12T14:29:36Z</time>
      </trkpt>
      <trkpt lat="45.81881" lon="6.14179">
        <ele>602.883789</ele>
        <time>2011-03-12T14:29:45Z</time>
      </trkpt>
      <trkpt lat="45.81872" lon="6.14174">
        <ele>604.326172</ele>
        <time>2011-03-12T14:29:52Z</time>
      </trkpt>
      <trkpt lat="45.81862" lon="6.14166">
        <ele>604.806641</ele>
        <time>2011-03-12T14:30:00Z</time>
      </trkpt>
      <trkpt lat="45.81851" lon="6.14162">
        <ele>607.209961</ele>
        <time>2011-03-12T14:30:10Z</time>
      </trkpt>
      <trkpt lat="45.81845" lon="6.1416">
        <ele>608.171387</ele>
        <time>2011-03-12T14:30:18Z</time>
      </trkpt>
      <trkpt lat="45.8184" lon="6.14159">
        <ele>607.690674</ele>
        <time>2011-03-12T14:30:28Z</time>
      </trkpt>
      <trkpt lat="45.81832" lon="6.14159">
        <ele>609.132568</ele>
        <time>2011-03-12T14:30:38Z</time>
      </trkpt>
      <trkpt lat="45.81825" lon="6.1415">
        <ele>610.574463</ele>
        <time>2011-03-12T14:30:47Z</time>
      </trkpt>
      <trkpt lat="45.81823" lon="6.14144">
        <ele>611.055176</ele>
        <time>2011-03-12T14:30:53Z</time>
      </trkpt>
      <trkpt lat="45.81818" lon="6.1414">
        <ele>611.535889</ele>
        <time>2011-03-12T14:30:59Z</time>
      </trkpt>
      <trkpt lat="45.81813" lon="6.14133">
        <ele>613.458496</ele>
        <time>2011-03-12T14:31:09Z</time>
      </trkpt>
      <trkpt lat="45.81811" lon="6.14125">
        <ele>615.861816</ele>
        <time>2011-03-12T14:31:16Z</time>
      </trkpt>
      <trkpt lat="45.81803" lon="6.14114">
        <ele>618.264893</ele>
        <time>2011-03-12T14:31:27Z</time>
      </trkpt>
      <trkpt lat="45.81795" lon="6.14112">
        <ele>619.707031</ele>
        <time>2011-03-12T14:31:35Z</time>
      </trkpt>
      <trkpt lat="45.81788" lon="6.14121">
        <ele>620.668457</ele>
        <time>2011-03-12T14:31:43Z</time>
      </trkpt>
      <trkpt lat="45.81785" lon="6.14127">
        <ele>622.110352</ele>
        <time>2011-03-12T14:31:48Z</time>
      </trkpt>
      <trkpt lat="45.8178" lon="6.14127">
        <ele>622.591064</ele>
        <time>2011-03-12T14:31:52Z</time>
      </trkpt>
      <trkpt lat="45.81774" lon="6.14121">
        <ele>624.994385</ele>
        <time>2011-03-12T14:32:01Z</time>
      </trkpt>
      <trkpt lat="45.8177" lon="6.14115">
        <ele>626.916992</ele>
        <time>2011-03-12T14:32:08Z</time>
      </trkpt>
      <trkpt lat="45.81765" lon="6.1411">
        <ele>627.878174</ele>
        <time>2011-03-12T14:32:15Z</time>
      </trkpt>
      <trkpt lat="45.81762" lon="6.14103">
        <ele>628.358887</ele>
        <time>2011-03-12T14:32:21Z</time>
      </trkpt>
      <trkpt lat="45.81757" lon="6.14096">
        <ele>629.800781</ele>
        <time>2011-03-12T14:32:28Z</time>
      </trkpt>
      <trkpt lat="45.81751" lon="6.14094">
        <ele>631.24292</ele>
        <time>2011-03-12T14:32:34Z</time>
      </trkpt>
      <trkpt lat="45.81739" lon="6.141">
        <ele>633.165283</ele>
        <time>2011-03-12T14:32:43Z</time>
      </trkpt>
      <trkpt lat="45.81732" lon="6.14104">
        <ele>636.049561</ele>
        <time>2011-03-12T14:32:51Z</time>
      </trkpt>
      <trkpt lat="45.8172" lon="6.14105">
        <ele>638.452881</ele>
        <time>2011-03-12T14:33:01Z</time>
      </trkpt>
      <trkpt lat="45.81719" lon="6.14105">
        <ele>638.452881</ele>
        <time>2011-03-12T14:33:02Z</time>
      </trkpt>
      <trkpt lat="45.81711" lon="6.14105">
        <ele>639.894775</ele>
        <time>2011-03-12T14:33:10Z</time>
      </trkpt>
      <trkpt lat="45.81701" lon="6.14103">
        <ele>642.298096</ele>
        <time>2011-03-12T14:33:19Z</time>
      </trkpt>
      <trkpt lat="45.81691" lon="6.14099">
        <ele>642.778809</ele>
        <time>2011-03-12T14:33:28Z</time>
      </trkpt>
      <trkpt lat="45.8168" lon="6.14095">
        <ele>643.259277</ele>
        <time>2011-03-12T14:33:38Z</time>
      </trkpt>
      <trkpt lat="45.81677" lon="6.14094">
        <ele>643.259277</ele>
        <time>2011-03-12T14:33:51Z</time>
      </trkpt>
      <trkpt lat="45.81674" lon="6.14094">
        <ele>643.73999</ele>
        <time>2011-03-12T14:34:43Z</time>
      </trkpt>
      <trkpt lat="45.81666" lon="6.14092">
        <ele>643.73999</ele>
        <time>2011-03-12T14:34:51Z</time>
      </trkpt>
      <trkpt lat="45.81649" lon="6.14086">
        <ele>641.817383</ele>
        <time>2011-03-12T14:35:05Z</time>
      </trkpt>
      <trkpt lat="45.81627" lon="6.14082">
        <ele>640.375488</ele>
        <time>2011-03-12T14:35:21Z</time>
      </trkpt>
      <trkpt lat="45.81608" lon="6.1408">
        <ele>639.414063</ele>
        <time>2011-03-12T14:35:34Z</time>
      </trkpt>
      <trkpt lat="45.81589" lon="6.14075">
        <ele>638.452881</ele>
        <time>2011-03-12T14:35:48Z</time>
      </trkpt>
      <trkpt lat="45.81584" lon="6.14072">
        <ele>638.452881</ele>
        <time>2011-03-12T14:35:52Z</time>
      </trkpt>
      <trkpt lat="45.81571" lon="6.14066">
        <ele>637.491455</ele>
        <time>2011-03-12T14:36:02Z</time>
      </trkpt>
      <trkpt lat="45.81554" lon="6.14066">
        <ele>636.049561</ele>
        <time>2011-03-12T14:36:13Z</time>
      </trkpt>
      <trkpt lat="45.81536" lon="6.14061">
        <ele>635.568604</ele>
        <time>2011-03-12T14:36:26Z</time>
      </trkpt>
      <trkpt lat="45.81518" lon="6.14056">
        <ele>634.607422</ele>
        <time>2011-03-12T14:36:38Z</time>
      </trkpt>
      <trkpt lat="45.81501" lon="6.14051">
        <ele>634.607422</ele>
        <time>2011-03-12T14:36:50Z</time>
      </trkpt>
      <trkpt lat="45.81489" lon="6.14042">
        <ele>633.645996</ele>
        <time>2011-03-12T14:37:01Z</time>
      </trkpt>
      <trkpt lat="45.81487" lon="6.1404">
        <ele>633.645996</ele>
        <time>2011-03-12T14:37:03Z</time>
      </trkpt>
      <trkpt lat="45.81476" lon="6.14042">
        <ele>633.645996</ele>
        <time>2011-03-12T14:37:12Z</time>
      </trkpt>
      <trkpt lat="45.81465" lon="6.14046">
        <ele>635.088135</ele>
        <time>2011-03-12T14:37:21Z</time>
      </trkpt>
      <trkpt lat="45.81444" lon="6.14047">
        <ele>635.568604</ele>
        <time>2011-03-12T14:37:34Z</time>
      </trkpt>
      <trkpt lat="45.81424" lon="6.14044">
        <ele>633.645996</ele>
        <time>2011-03-12T14:37:47Z</time>
      </trkpt>
      <trkpt lat="45.81414" lon="6.14039">
        <ele>632.204102</ele>
        <time>2011-03-12T14:37:56Z</time>
      </trkpt>
      <trkpt lat="45.81408" lon="6.14031">
        <ele>632.204102</ele>
        <time>2011-03-12T14:38:04Z</time>
      </trkpt>
      <trkpt lat="45.814" lon="6.14033">
        <ele>632.684814</ele>
        <time>2011-03-12T14:38:12Z</time>
      </trkpt>
      <trkpt lat="45.81385" lon="6.1404">
        <ele>634.126709</ele>
        <time>2011-03-12T14:38:22Z</time>
      </trkpt>
      <trkpt lat="45.81376" lon="6.14043">
        <ele>634.126709</ele>
        <time>2011-03-12T14:38:29Z</time>
      </trkpt>
      <trkpt lat="45.8136" lon="6.14045">
        <ele>634.126709</ele>
        <time>2011-03-12T14:38:39Z</time>
      </trkpt>
      <trkpt lat="45.81345" lon="6.14044">
        <ele>634.607422</ele>
        <time>2011-03-12T14:38:47Z</time>
      </trkpt>
      <trkpt lat="45.81323" lon="6.14042">
        <ele>635.568604</ele>
        <time>2011-03-12T14:39:00Z</time>
      </trkpt>
      <trkpt lat="45.81306" lon="6.1404">
        <ele>634.607422</ele>
        <time>2011-03-12T14:39:12Z</time>
      </trkpt>
      <trkpt lat="45.8129" lon="6.14039">
        <ele>634.607422</ele>
        <time>2011-03-12T14:39:23Z</time>
      </trkpt>
      <trkpt lat="45.81275" lon="6.14033">
        <ele>635.088135</ele>
        <time>2011-03-12T14:39:35Z</time>
      </trkpt>
      <trkpt lat="45.81263" lon="6.14027">
        <ele>635.568604</ele>
        <time>2011-03-12T14:39:45Z</time>
      </trkpt>
      <trkpt lat="45.81251" lon="6.14016">
        <ele>636.530273</ele>
        <time>2011-03-12T14:39:55Z</time>
      </trkpt>
      <trkpt lat="45.81245" lon="6.14007">
        <ele>636.049561</ele>
        <time>2011-03-12T14:40:01Z</time>
      </trkpt>
      <trkpt lat="45.81241" lon="6.14002">
        <ele>635.568604</ele>
        <time>2011-03-12T14:40:05Z</time>
      </trkpt>
      <trkpt lat="45.81232" lon="6.13997">
        <ele>635.088135</ele>
        <time>2011-03-12T14:40:11Z</time>
      </trkpt>
      <trkpt lat="45.81226" lon="6.14003">
        <ele>635.088135</ele>
        <time>2011-03-12T14:40:19Z</time>
      </trkpt>
      <trkpt lat="45.81215" lon="6.14016">
        <ele>634.607422</ele>
        <time>2011-03-12T14:40:27Z</time>
      </trkpt>
      <trkpt lat="45.81202" lon="6.14024">
        <ele>635.568604</ele>
        <time>2011-03-12T14:40:35Z</time>
      </trkpt>
      <trkpt lat="45.81184" lon="6.14029">
        <ele>636.530273</ele>
        <time>2011-03-12T14:40:46Z</time>
      </trkpt>
      <trkpt lat="45.8117" lon="6.1403">
        <ele>636.530273</ele>
        <time>2011-03-12T14:40:55Z</time>
      </trkpt>
      <trkpt lat="45.81154" lon="6.1403">
        <ele>636.049561</ele>
        <time>2011-03-12T14:41:05Z</time>
      </trkpt>
      <trkpt lat="45.81137" lon="6.14028">
        <ele>637.010742</ele>
        <time>2011-03-12T14:41:16Z</time>
      </trkpt>
      <trkpt lat="45.81118" lon="6.14026">
        <ele>637.491455</ele>
        <time>2011-03-12T14:41:29Z</time>
      </trkpt>
      <trkpt lat="45.811" lon="6.14029">
        <ele>637.491455</ele>
        <time>2011-03-12T14:41:41Z</time>
      </trkpt>
      <trkpt lat="45.81081" lon="6.14033">
        <ele>636.530273</ele>
        <time>2011-03-12T14:41:54Z</time>
      </trkpt>
      <trkpt lat="45.81065" lon="6.14032">
        <ele>635.568604</ele>
        <time>2011-03-12T14:42:05Z</time>
      </trkpt>
      <trkpt lat="45.81051" lon="6.14025">
        <ele>633.645996</ele>
        <time>2011-03-12T14:42:16Z</time>
      </trkpt>
      <trkpt lat="45.81042" lon="6.14033">
        <ele>633.165283</ele>
        <time>2011-03-12T14:42:24Z</time>
      </trkpt>
      <trkpt lat="45.8104" lon="6.1404">
        <ele>632.204102</ele>
        <time>2011-03-12T14:42:32Z</time>
      </trkpt>
      <trkpt lat="45.81042" lon="6.14043">
        <ele>632.684814</ele>
        <time>2011-03-12T14:42:54Z</time>
      </trkpt>
      <trkpt lat="45.81041" lon="6.14046">
        <ele>631.723389</ele>
        <time>2011-03-12T14:43:12Z</time>
      </trkpt>
      <trkpt lat="45.81039" lon="6.14046">
        <ele>632.204102</ele>
        <time>2011-03-12T14:43:15Z</time>
      </trkpt>
      <trkpt lat="45.81025" lon="6.14039">
        <ele>634.126709</ele>
        <time>2011-03-12T14:43:27Z</time>
      </trkpt>
      <trkpt lat="45.81008" lon="6.14031">
        <ele>634.126709</ele>
        <time>2011-03-12T14:43:41Z</time>
      </trkpt>
      <trkpt lat="45.8099" lon="6.14019">
        <ele>635.088135</ele>
        <time>2011-03-12T14:43:56Z</time>
      </trkpt>
      <trkpt lat="45.8097" lon="6.14008">
        <ele>636.530273</ele>
        <time>2011-03-12T14:44:12Z</time>
      </trkpt>
      <trkpt lat="45.80951" lon="6.14006">
        <ele>637.491455</ele>
        <time>2011-03-12T14:44:27Z</time>
      </trkpt>
      <trkpt lat="45.80936" lon="6.14012">
        <ele>638.452881</ele>
        <time>2011-03-12T14:44:39Z</time>
      </trkpt>
      <trkpt lat="45.80925" lon="6.14015">
        <ele>639.414063</ele>
        <time>2011-03-12T14:44:49Z</time>
      </trkpt>
      <trkpt lat="45.80909" lon="6.14013">
        <ele>640.375488</ele>
        <time>2011-03-12T14:45:02Z</time>
      </trkpt>
      <trkpt lat="45.80895" lon="6.14006">
        <ele>641.33667</ele>
        <time>2011-03-12T14:45:14Z</time>
      </trkpt>
      <trkpt lat="45.80877" lon="6.13998">
        <ele>641.817383</ele>
        <time>2011-03-12T14:45:28Z</time>
      </trkpt>
      <trkpt lat="45.80859" lon="6.13989">
        <ele>644.220703</ele>
        <time>2011-03-12T14:45:43Z</time>
      </trkpt>
      <trkpt lat="45.80843" lon="6.13979">
        <ele>644.701172</ele>
        <time>2011-03-12T14:45:56Z</time>
      </trkpt>
      <trkpt lat="45.80828" lon="6.13963">
        <ele>646.624023</ele>
        <time>2011-03-12T14:46:11Z</time>
      </trkpt>
      <trkpt lat="45.80817" lon="6.13946">
        <ele>648.546387</ele>
        <time>2011-03-12T14:46:24Z</time>
      </trkpt>
      <trkpt lat="45.80808" lon="6.13932">
        <ele>649.507813</ele>
        <time>2011-03-12T14:46:35Z</time>
      </trkpt>
      <trkpt lat="45.80795" lon="6.13916">
        <ele>650.949707</ele>
        <time>2011-03-12T14:46:49Z</time>
      </trkpt>
      <trkpt lat="45.8078" lon="6.13914">
        <ele>652.391846</ele>
        <time>2011-03-12T14:47:01Z</time>
      </trkpt>
      <trkpt lat="45.80768" lon="6.13925">
        <ele>653.833984</ele>
        <time>2011-03-12T14:47:12Z</time>
      </trkpt>
      <trkpt lat="45.80759" lon="6.13943">
        <ele>654.795166</ele>
        <time>2011-03-12T14:47:24Z</time>
      </trkpt>
      <trkpt lat="45.80752" lon="6.13961">
        <ele>655.756592</ele>
        <time>2011-03-12T14:47:36Z</time>
      </trkpt>
      <trkpt lat="45.80745" lon="6.13974">
        <ele>657.198486</ele>
        <time>2011-03-12T14:47:45Z</time>
      </trkpt>
      <trkpt lat="45.8073" lon="6.13987">
        <ele>658.159912</ele>
        <time>2011-03-12T14:47:57Z</time>
      </trkpt>
      <trkpt lat="45.80711" lon="6.13999">
        <ele>659.601807</ele>
        <time>2011-03-12T14:48:12Z</time>
      </trkpt>
      <trkpt lat="45.80699" lon="6.14007">
        <ele>660.082275</ele>
        <time>2011-03-12T14:48:22Z</time>
      </trkpt>
      <trkpt lat="45.80685" lon="6.14017">
        <ele>660.562988</ele>
        <time>2011-03-12T14:48:33Z</time>
      </trkpt>
      <trkpt lat="45.80681" lon="6.14027">
        <ele>658.640381</ele>
        <time>2011-03-12T14:48:41Z</time>
      </trkpt>
      <trkpt lat="45.80677" lon="6.14041">
        <ele>656.717773</ele>
        <time>2011-03-12T14:48:50Z</time>
      </trkpt>
      <trkpt lat="45.80673" lon="6.14049">
        <ele>654.795166</ele>
        <time>2011-03-12T14:48:57Z</time>
      </trkpt>
      <trkpt lat="45.80665" lon="6.14054">
        <ele>653.353271</ele>
        <time>2011-03-12T14:49:05Z</time>
      </trkpt>
      <trkpt lat="45.80659" lon="6.14058">
        <ele>652.872559</ele>
        <time>2011-03-12T14:49:14Z</time>
      </trkpt>
      <trkpt lat="45.80656" lon="6.14063">
        <ele>652.872559</ele>
        <time>2011-03-12T14:49:20Z</time>
      </trkpt>
      <trkpt lat="45.80651" lon="6.14071">
        <ele>652.872559</ele>
        <time>2011-03-12T14:49:27Z</time>
      </trkpt>
      <trkpt lat="45.80643" lon="6.14085">
        <ele>653.833984</ele>
        <time>2011-03-12T14:49:38Z</time>
      </trkpt>
      <trkpt lat="45.80639" lon="6.14091">
        <ele>654.314697</ele>
        <time>2011-03-12T14:49:45Z</time>
      </trkpt>
      <trkpt lat="45.80634" lon="6.14092">
        <ele>655.275879</ele>
        <time>2011-03-12T14:49:53Z</time>
      </trkpt>
      <trkpt lat="45.80629" lon="6.14093">
        <ele>655.275879</ele>
        <time>2011-03-12T14:50:01Z</time>
      </trkpt>
      <trkpt lat="45.80622" lon="6.14095">
        <ele>656.717773</ele>
        <time>2011-03-12T14:50:08Z</time>
      </trkpt>
      <trkpt lat="45.80609" lon="6.14098">
        <ele>658.159912</ele>
        <time>2011-03-12T14:50:19Z</time>
      </trkpt>
      <trkpt lat="45.80599" lon="6.14101">
        <ele>659.121094</ele>
        <time>2011-03-12T14:50:30Z</time>
      </trkpt>
      <trkpt lat="45.80596" lon="6.14102">
        <ele>659.601807</ele>
        <time>2011-03-12T14:50:36Z</time>
      </trkpt>
      <trkpt lat="45.80588" lon="6.14104">
        <ele>660.562988</ele>
        <time>2011-03-12T14:50:44Z</time>
      </trkpt>
      <trkpt lat="45.80585" lon="6.14102">
        <ele>661.043701</ele>
        <time>2011-03-12T14:50:50Z</time>
      </trkpt>
      <trkpt lat="45.80579" lon="6.14103">
        <ele>661.524414</ele>
        <time>2011-03-12T14:50:57Z</time>
      </trkpt>
      <trkpt lat="45.80572" lon="6.14106">
        <ele>662.005127</ele>
        <time>2011-03-12T14:51:05Z</time>
      </trkpt>
      <trkpt lat="45.80566" lon="6.14113">
        <ele>662.485596</ele>
        <time>2011-03-12T14:51:11Z</time>
      </trkpt>
      <trkpt lat="45.80557" lon="6.14122">
        <ele>664.408203</ele>
        <time>2011-03-12T14:51:21Z</time>
      </trkpt>
      <trkpt lat="45.80549" lon="6.14128">
        <ele>665.369629</ele>
        <time>2011-03-12T14:51:30Z</time>
      </trkpt>
      <trkpt lat="45.8054" lon="6.14133">
        <ele>666.330811</ele>
        <time>2011-03-12T14:51:38Z</time>
      </trkpt>
      <trkpt lat="45.80533" lon="6.14136">
        <ele>667.772705</ele>
        <time>2011-03-12T14:51:46Z</time>
      </trkpt>
      <trkpt lat="45.80524" lon="6.14139">
        <ele>669.695801</ele>
        <time>2011-03-12T14:51:55Z</time>
      </trkpt>
      <trkpt lat="45.80515" lon="6.14142">
        <ele>669.695801</ele>
        <time>2011-03-12T14:52:01Z</time>
      </trkpt>
      <trkpt lat="45.80506" lon="6.14142">
        <ele>671.137695</ele>
        <time>2011-03-12T14:52:09Z</time>
      </trkpt>
      <trkpt lat="45.80497" lon="6.1415">
        <ele>672.57959</ele>
        <time>2011-03-12T14:52:19Z</time>
      </trkpt>
      <trkpt lat="45.80485" lon="6.14158">
        <ele>674.502197</ele>
        <time>2011-03-12T14:52:28Z</time>
      </trkpt>
      <trkpt lat="45.80474" lon="6.14163">
        <ele>674.98291</ele>
        <time>2011-03-12T14:52:38Z</time>
      </trkpt>
      <trkpt lat="45.80468" lon="6.14164">
        <ele>674.502197</ele>
        <time>2011-03-12T14:52:47Z</time>
      </trkpt>
      <trkpt lat="45.80461" lon="6.14166">
        <ele>675.463379</ele>
        <time>2011-03-12T14:52:55Z</time>
      </trkpt>
      <trkpt lat="45.80457" lon="6.14168">
        <ele>675.463379</ele>
        <time>2011-03-12T14:53:06Z</time>
      </trkpt>
      <trkpt lat="45.80455" lon="6.14176">
        <ele>674.98291</ele>
        <time>2011-03-12T14:53:20Z</time>
      </trkpt>
      <trkpt lat="45.80453" lon="6.1418">
        <ele>674.502197</ele>
        <time>2011-03-12T14:53:41Z</time>
      </trkpt>
      <trkpt lat="45.80452" lon="6.14186">
        <ele>674.502197</ele>
        <time>2011-03-12T14:53:59Z</time>
      </trkpt>
      <trkpt lat="45.80447" lon="6.1419">
        <ele>674.502197</ele>
        <time>2011-03-12T14:55:13Z</time>
      </trkpt>
      <trkpt lat="45.80442" lon="6.14197">
        <ele>672.098877</ele>
        <time>2011-03-12T14:55:20Z</time>
      </trkpt>
      <trkpt lat="45.80433" lon="6.1421">
        <ele>671.137695</ele>
        <time>2011-03-12T14:55:30Z</time>
      </trkpt>
      <trkpt lat="45.80424" lon="6.14216">
        <ele>669.695801</ele>
        <time>2011-03-12T14:55:38Z</time>
      </trkpt>
      <trkpt lat="45.80412" lon="6.14228">
        <ele>670.17627</ele>
        <time>2011-03-12T14:55:49Z</time>
      </trkpt>
      <trkpt lat="45.80406" lon="6.14242">
        <ele>671.137695</ele>
        <time>2011-03-12T14:55:58Z</time>
      </trkpt>
      <trkpt lat="45.80404" lon="6.14245">
        <ele>672.57959</ele>
        <time>2011-03-12T14:56:01Z</time>
      </trkpt>
      <trkpt lat="45.80394" lon="6.14251">
        <ele>674.021484</ele>
        <time>2011-03-12T14:56:10Z</time>
      </trkpt>
      <trkpt lat="45.80382" lon="6.14257">
        <ele>675.463379</ele>
        <time>2011-03-12T14:56:21Z</time>
      </trkpt>
      <trkpt lat="45.80378" lon="6.14259">
        <ele>677.38623</ele>
        <time>2011-03-12T14:56:25Z</time>
      </trkpt>
      <trkpt lat="45.80368" lon="6.14263">
        <ele>678.828125</ele>
        <time>2011-03-12T14:56:34Z</time>
      </trkpt>
      <trkpt lat="45.80361" lon="6.14262">
        <ele>679.789307</ele>
        <time>2011-03-12T14:56:40Z</time>
      </trkpt>
      <trkpt lat="45.8036" lon="6.1425">
        <ele>681.711914</ele>
        <time>2011-03-12T14:56:49Z</time>
      </trkpt>
      <trkpt lat="45.80357" lon="6.14241">
        <ele>682.192627</ele>
        <time>2011-03-12T14:56:56Z</time>
      </trkpt>
      <trkpt lat="45.80353" lon="6.14235">
        <ele>683.153809</ele>
        <time>2011-03-12T14:57:01Z</time>
      </trkpt>
      <trkpt lat="45.80339" lon="6.14227">
        <ele>684.115479</ele>
        <time>2011-03-12T14:57:13Z</time>
      </trkpt>
      <trkpt lat="45.80329" lon="6.14229">
        <ele>686.999268</ele>
        <time>2011-03-12T14:57:22Z</time>
      </trkpt>
      <trkpt lat="45.80314" lon="6.14231">
        <ele>688.922119</ele>
        <time>2011-03-12T14:57:35Z</time>
      </trkpt>
      <trkpt lat="45.80298" lon="6.14223">
        <ele>690.844482</ele>
        <time>2011-03-12T14:57:49Z</time>
      </trkpt>
      <trkpt lat="45.80289" lon="6.14215">
        <ele>691.805908</ele>
        <time>2011-03-12T14:57:58Z</time>
      </trkpt>
      <trkpt lat="45.80281" lon="6.14206">
        <ele>693.247803</ele>
        <time>2011-03-12T14:58:07Z</time>
      </trkpt>
      <trkpt lat="45.80274" lon="6.14192">
        <ele>694.689697</ele>
        <time>2011-03-12T14:58:17Z</time>
      </trkpt>
      <trkpt lat="45.80271" lon="6.14181">
        <ele>694.689697</ele>
        <time>2011-03-12T14:58:26Z</time>
      </trkpt>
      <trkpt lat="45.80265" lon="6.14179">
        <ele>694.689697</ele>
        <time>2011-03-12T14:58:34Z</time>
      </trkpt>
      <trkpt lat="45.80251" lon="6.14175">
        <ele>695.17041</ele>
        <time>2011-03-12T14:58:47Z</time>
      </trkpt>
      <trkpt lat="45.80245" lon="6.14167">
        <ele>696.131836</ele>
        <time>2011-03-12T14:58:58Z</time>
      </trkpt>
      <trkpt lat="45.80243" lon="6.14163">
        <ele>695.651123</ele>
        <time>2011-03-12T14:59:07Z</time>
      </trkpt>
      <trkpt lat="45.80241" lon="6.14159">
        <ele>695.17041</ele>
        <time>2011-03-12T14:59:16Z</time>
      </trkpt>
      <trkpt lat="45.80233" lon="6.14156">
        <ele>696.131836</ele>
        <time>2011-03-12T14:59:25Z</time>
      </trkpt>
      <trkpt lat="45.80224" lon="6.14155">
        <ele>697.093018</ele>
        <time>2011-03-12T14:59:35Z</time>
      </trkpt>
      <trkpt lat="45.80214" lon="6.14158">
        <ele>699.015625</ele>
        <time>2011-03-12T14:59:45Z</time>
      </trkpt>
      <trkpt lat="45.80201" lon="6.14164">
        <ele>699.977051</ele>
        <time>2011-03-12T14:59:55Z</time>
      </trkpt>
      <trkpt lat="45.80189" lon="6.14169">
        <ele>701.899902</ele>
        <time>2011-03-12T15:00:06Z</time>
      </trkpt>
      <trkpt lat="45.80177" lon="6.14171">
        <ele>702.380371</ele>
        <time>2011-03-12T15:00:16Z</time>
      </trkpt>
      <trkpt lat="45.80168" lon="6.14174">
        <ele>703.341797</ele>
        <time>2011-03-12T15:00:24Z</time>
      </trkpt>
      <trkpt lat="45.80158" lon="6.14179">
        <ele>704.783691</ele>
        <time>2011-03-12T15:00:33Z</time>
      </trkpt>
      <trkpt lat="45.80149" lon="6.14181">
        <ele>705.264404</ele>
        <time>2011-03-12T15:00:43Z</time>
      </trkpt>
      <trkpt lat="45.80146" lon="6.14182">
        <ele>705.745117</ele>
        <time>2011-03-12T15:00:50Z</time>
      </trkpt>
      <trkpt lat="45.80133" lon="6.14185">
        <ele>705.745117</ele>
        <time>2011-03-12T15:02:41Z</time>
      </trkpt>
      <trkpt lat="45.80124" lon="6.14182">
        <ele>707.187012</ele>
        <time>2011-03-12T15:02:50Z</time>
      </trkpt>
      <trkpt lat="45.80114" lon="6.1418">
        <ele>708.148438</ele>
        <time>2011-03-12T15:03:00Z</time>
      </trkpt>
      <trkpt lat="45.80103" lon="6.14175">
        <ele>707.667725</ele>
        <time>2011-03-12T15:03:10Z</time>
      </trkpt>
      <trkpt lat="45.80093" lon="6.14173">
        <ele>706.706299</ele>
        <time>2011-03-12T15:03:18Z</time>
      </trkpt>
      <trkpt lat="45.80087" lon="6.14169">
        <ele>705.264404</ele>
        <time>2011-03-12T15:03:25Z</time>
      </trkpt>
      <trkpt lat="45.80082" lon="6.14164">
        <ele>702.380371</ele>
        <time>2011-03-12T15:03:33Z</time>
      </trkpt>
      <trkpt lat="45.80078" lon="6.14154">
        <ele>700.458008</ele>
        <time>2011-03-12T15:03:40Z</time>
      </trkpt>
      <trkpt lat="45.80075" lon="6.14146">
        <ele>699.496338</ele>
        <time>2011-03-12T15:03:46Z</time>
      </trkpt>
      <trkpt lat="45.80074" lon="6.1414">
        <ele>696.612549</ele>
        <time>2011-03-12T15:03:51Z</time>
      </trkpt>
      <trkpt lat="45.80075" lon="6.14128">
        <ele>696.612549</ele>
        <time>2011-03-12T15:03:57Z</time>
      </trkpt>
      <trkpt lat="45.80074" lon="6.14118">
        <ele>696.131836</ele>
        <time>2011-03-12T15:04:04Z</time>
      </trkpt>
      <trkpt lat="45.8007" lon="6.14106">
        <ele>695.17041</ele>
        <time>2011-03-12T15:04:12Z</time>
      </trkpt>
      <trkpt lat="45.80061" lon="6.14098">
        <ele>696.131836</ele>
        <time>2011-03-12T15:04:20Z</time>
      </trkpt>
      <trkpt lat="45.80044" lon="6.14101">
        <ele>698.054443</ele>
        <time>2011-03-12T15:04:30Z</time>
      </trkpt>
      <trkpt lat="45.80033" lon="6.14108">
        <ele>700.458008</ele>
        <time>2011-03-12T15:04:40Z</time>
      </trkpt>
      <trkpt lat="45.80022" lon="6.14113">
        <ele>702.861084</ele>
        <time>2011-03-12T15:04:49Z</time>
      </trkpt>
      <trkpt lat="45.80012" lon="6.1411">
        <ele>705.745117</ele>
        <time>2011-03-12T15:04:58Z</time>
      </trkpt>
      <trkpt lat="45.80007" lon="6.14101">
        <ele>707.187012</ele>
        <time>2011-03-12T15:05:07Z</time>
      </trkpt>
      <trkpt lat="45.80007" lon="6.14094">
        <ele>707.187012</ele>
        <time>2011-03-12T15:05:11Z</time>
      </trkpt>
      <trkpt lat="45.80001" lon="6.14079">
        <ele>706.706299</ele>
        <time>2011-03-12T15:05:21Z</time>
      </trkpt>
      <trkpt lat="45.79996" lon="6.14076">
        <ele>705.264404</ele>
        <time>2011-03-12T15:05:26Z</time>
      </trkpt>
      <trkpt lat="45.7998" lon="6.14075">
        <ele>703.341797</ele>
        <time>2011-03-12T15:05:35Z</time>
      </trkpt>
      <trkpt lat="45.79978" lon="6.14075">
        <ele>703.82251</ele>
        <time>2011-03-12T15:05:37Z</time>
      </trkpt>
      <trkpt lat="45.79965" lon="6.14067">
        <ele>701.899902</ele>
        <time>2011-03-12T15:05:46Z</time>
      </trkpt>
      <trkpt lat="45.79953" lon="6.14062">
        <ele>700.458008</ele>
        <time>2011-03-12T15:05:55Z</time>
      </trkpt>
      <trkpt lat="45.79937" lon="6.1406">
        <ele>700.458008</ele>
        <time>2011-03-12T15:06:06Z</time>
      </trkpt>
      <trkpt lat="45.79927" lon="6.14063">
        <ele>700.458008</ele>
        <time>2011-03-12T15:06:13Z</time>
      </trkpt>
      <trkpt lat="45.79919" lon="6.14064">
        <ele>701.899902</ele>
        <time>2011-03-12T15:06:20Z</time>
      </trkpt>
      <trkpt lat="45.79906" lon="6.14063">
        <ele>703.82251</ele>
        <time>2011-03-12T15:06:30Z</time>
      </trkpt>
      <trkpt lat="45.79898" lon="6.14067">
        <ele>703.82251</ele>
        <time>2011-03-12T15:06:36Z</time>
      </trkpt>
      <trkpt lat="45.79893" lon="6.14079">
        <ele>705.264404</ele>
        <time>2011-03-12T15:06:45Z</time>
      </trkpt>
      <trkpt lat="45.79891" lon="6.14085">
        <ele>705.745117</ele>
        <time>2011-03-12T15:06:49Z</time>
      </trkpt>
      <trkpt lat="45.79888" lon="6.14101">
        <ele>705.264404</ele>
        <time>2011-03-12T15:06:59Z</time>
      </trkpt>
      <trkpt lat="45.79885" lon="6.14113">
        <ele>706.225586</ele>
        <time>2011-03-12T15:07:09Z</time>
      </trkpt>
      <trkpt lat="45.79882" lon="6.14125">
        <ele>705.745117</ele>
        <time>2011-03-12T15:07:16Z</time>
      </trkpt>
      <trkpt lat="45.79879" lon="6.14139">
        <ele>707.667725</ele>
        <time>2011-03-12T15:07:25Z</time>
      </trkpt>
      <trkpt lat="45.79874" lon="6.14149">
        <ele>707.667725</ele>
        <time>2011-03-12T15:07:33Z</time>
      </trkpt>
      <trkpt lat="45.79867" lon="6.14152">
        <ele>708.148438</ele>
        <time>2011-03-12T15:07:40Z</time>
      </trkpt>
      <trkpt lat="45.79859" lon="6.14154">
        <ele>707.667725</ele>
        <time>2011-03-12T15:07:48Z</time>
      </trkpt>
      <trkpt lat="45.79854" lon="6.14154">
        <ele>707.667725</ele>
        <time>2011-03-12T15:07:52Z</time>
      </trkpt>
      <trkpt lat="45.79843" lon="6.14151">
        <ele>708.148438</ele>
        <time>2011-03-12T15:08:02Z</time>
      </trkpt>
      <trkpt lat="45.79836" lon="6.14152">
        <ele>707.187012</ele>
        <time>2011-03-12T15:08:09Z</time>
      </trkpt>
      <trkpt lat="45.79829" lon="6.14155">
        <ele>706.225586</ele>
        <time>2011-03-12T15:08:16Z</time>
      </trkpt>
      <trkpt lat="45.79815" lon="6.1416">
        <ele>702.861084</ele>
        <time>2011-03-12T15:08:27Z</time>
      </trkpt>
      <trkpt lat="45.79807" lon="6.14163">
        <ele>701.419189</ele>
        <time>2011-03-12T15:08:35Z</time>
      </trkpt>
      <trkpt lat="45.79802" lon="6.14161">
        <ele>698.054443</ele>
        <time>2011-03-12T15:08:45Z</time>
      </trkpt>
      <trkpt lat="45.79793" lon="6.14157">
        <ele>697.57373</ele>
        <time>2011-03-12T15:08:52Z</time>
      </trkpt>
      <trkpt lat="45.7979" lon="6.14154">
        <ele>697.57373</ele>
        <time>2011-03-12T15:08:58Z</time>
      </trkpt>
      <trkpt lat="45.79785" lon="6.14149">
        <ele>697.57373</ele>
        <time>2011-03-12T15:09:05Z</time>
      </trkpt>
      <trkpt lat="45.79775" lon="6.14152">
        <ele>697.57373</ele>
        <time>2011-03-12T15:09:12Z</time>
      </trkpt>
      <trkpt lat="45.79768" lon="6.14159">
        <ele>696.131836</ele>
        <time>2011-03-12T15:09:19Z</time>
      </trkpt>
      <trkpt lat="45.79766" lon="6.14166">
        <ele>694.209229</ele>
        <time>2011-03-12T15:09:25Z</time>
      </trkpt>
      <trkpt lat="45.79763" lon="6.14172">
        <ele>691.805908</ele>
        <time>2011-03-12T15:09:31Z</time>
      </trkpt>
      <trkpt lat="45.79754" lon="6.14178">
        <ele>690.364014</ele>
        <time>2011-03-12T15:09:40Z</time>
      </trkpt>
      <trkpt lat="45.79752" lon="6.14176">
        <ele>688.441406</ele>
        <time>2011-03-12T15:09:46Z</time>
      </trkpt>
      <trkpt lat="45.79746" lon="6.14176">
        <ele>686.038086</ele>
        <time>2011-03-12T15:09:53Z</time>
      </trkpt>
      <trkpt lat="45.7974" lon="6.14176">
        <ele>684.596191</ele>
        <time>2011-03-12T15:10:00Z</time>
      </trkpt>
      <trkpt lat="45.79736" lon="6.14174">
        <ele>683.634521</ele>
        <time>2011-03-12T15:10:07Z</time>
      </trkpt>
      <trkpt lat="45.79729" lon="6.14178">
        <ele>684.115479</ele>
        <time>2011-03-12T15:10:13Z</time>
      </trkpt>
      <trkpt lat="45.79725" lon="6.14186">
        <ele>686.038086</ele>
        <time>2011-03-12T15:10:20Z</time>
      </trkpt>
      <trkpt lat="45.79725" lon="6.14192">
        <ele>686.518799</ele>
        <time>2011-03-12T15:10:25Z</time>
      </trkpt>
      <trkpt lat="45.79727" lon="6.14195">
        <ele>684.596191</ele>
        <time>2011-03-12T15:10:28Z</time>
      </trkpt>
      <trkpt lat="45.79728" lon="6.14207">
        <ele>683.153809</ele>
        <time>2011-03-12T15:10:37Z</time>
      </trkpt>
      <trkpt lat="45.79725" lon="6.14218">
        <ele>682.192627</ele>
        <time>2011-03-12T15:10:45Z</time>
      </trkpt>
      <trkpt lat="45.79725" lon="6.14223">
        <ele>681.711914</ele>
        <time>2011-03-12T15:10:48Z</time>
      </trkpt>
      <trkpt lat="45.79721" lon="6.14238">
        <ele>680.27002</ele>
        <time>2011-03-12T15:10:57Z</time>
      </trkpt>
      <trkpt lat="45.79719" lon="6.1425">
        <ele>678.347412</ele>
        <time>2011-03-12T15:11:05Z</time>
      </trkpt>
      <trkpt lat="45.79718" lon="6.14259">
        <ele>677.866699</ele>
        <time>2011-03-12T15:11:13Z</time>
      </trkpt>
      <trkpt lat="45.79716" lon="6.14264">
        <ele>675.944092</ele>
        <time>2011-03-12T15:11:18Z</time>
      </trkpt>
      <trkpt lat="45.79711" lon="6.14269">
        <ele>674.98291</ele>
        <time>2011-03-12T15:11:23Z</time>
      </trkpt>
      <trkpt lat="45.79699" lon="6.14277">
        <ele>672.57959</ele>
        <time>2011-03-12T15:11:33Z</time>
      </trkpt>
      <trkpt lat="45.7969" lon="6.14283">
        <ele>670.656982</ele>
        <time>2011-03-12T15:11:40Z</time>
      </trkpt>
      <trkpt lat="45.79684" lon="6.14287">
        <ele>669.695801</ele>
        <time>2011-03-12T15:11:44Z</time>
      </trkpt>
      <trkpt lat="45.79675" lon="6.1429">
        <ele>666.811523</ele>
        <time>2011-03-12T15:11:54Z</time>
      </trkpt>
      <trkpt lat="45.79664" lon="6.14297">
        <ele>664.888916</ele>
        <time>2011-03-12T15:12:03Z</time>
      </trkpt>
      <trkpt lat="45.79654" lon="6.14296">
        <ele>663.447021</ele>
        <time>2011-03-12T15:12:11Z</time>
      </trkpt>
      <trkpt lat="45.79653" lon="6.14289">
        <ele>663.447021</ele>
        <time>2011-03-12T15:12:17Z</time>
      </trkpt>
      <trkpt lat="45.79649" lon="6.14282">
        <ele>663.447021</ele>
        <time>2011-03-12T15:12:23Z</time>
      </trkpt>
      <trkpt lat="45.79646" lon="6.14279">
        <ele>663.92749</ele>
        <time>2011-03-12T15:12:28Z</time>
      </trkpt>
      <trkpt lat="45.79638" lon="6.14276">
        <ele>662.966309</ele>
        <time>2011-03-12T15:12:39Z</time>
      </trkpt>
      <trkpt lat="45.79634" lon="6.14271">
        <ele>663.447021</ele>
        <time>2011-03-12T15:12:55Z</time>
      </trkpt>
      <trkpt lat="45.79635" lon="6.14266">
        <ele>664.408203</ele>
        <time>2011-03-12T15:13:08Z</time>
      </trkpt>
      <trkpt lat="45.79631" lon="6.14268">
        <ele>663.447021</ele>
        <time>2011-03-12T15:13:18Z</time>
      </trkpt>
      <trkpt lat="45.79627" lon="6.14268">
        <ele>664.408203</ele>
        <time>2011-03-12T15:13:26Z</time>
      </trkpt>
      <trkpt lat="45.79627" lon="6.14264">
        <ele>666.330811</ele>
        <time>2011-03-12T15:13:33Z</time>
      </trkpt>
      <trkpt lat="45.79626" lon="6.14254">
        <ele>668.734375</ele>
        <time>2011-03-12T15:13:42Z</time>
      </trkpt>
      <trkpt lat="45.79616" lon="6.14256">
        <ele>670.656982</ele>
        <time>2011-03-12T15:13:50Z</time>
      </trkpt>
      <trkpt lat="45.7961" lon="6.1426">
        <ele>672.57959</ele>
        <time>2011-03-12T15:13:57Z</time>
      </trkpt>
      <trkpt lat="45.796" lon="6.14268">
        <ele>674.98291</ele>
        <time>2011-03-12T15:14:06Z</time>
      </trkpt>
      <trkpt lat="45.79593" lon="6.14271">
        <ele>675.944092</ele>
        <time>2011-03-12T15:14:12Z</time>
      </trkpt>
      <trkpt lat="45.79578" lon="6.14278">
        <ele>677.866699</ele>
        <time>2011-03-12T15:14:24Z</time>
      </trkpt>
      <trkpt lat="45.79566" lon="6.14282">
        <ele>680.27002</ele>
        <time>2011-03-12T15:14:35Z</time>
      </trkpt>
      <trkpt lat="45.79558" lon="6.14286">
        <ele>682.192627</ele>
        <time>2011-03-12T15:14:43Z</time>
      </trkpt>
      <trkpt lat="45.7955" lon="6.1429">
        <ele>683.634521</ele>
        <time>2011-03-12T15:14:50Z</time>
      </trkpt>
      <trkpt lat="45.79543" lon="6.14293">
        <ele>686.038086</ele>
        <time>2011-03-12T15:14:57Z</time>
      </trkpt>
      <trkpt lat="45.79536" lon="6.143">
        <ele>687.47998</ele>
        <time>2011-03-12T15:15:04Z</time>
      </trkpt>
      <trkpt lat="45.79535" lon="6.14314">
        <ele>690.364014</ele>
        <time>2011-03-12T15:15:14Z</time>
      </trkpt>
      <trkpt lat="45.79536" lon="6.14316">
        <ele>690.844482</ele>
        <time>2011-03-12T15:15:15Z</time>
      </trkpt>
      <trkpt lat="45.79534" lon="6.14328">
        <ele>692.767334</ele>
        <time>2011-03-12T15:15:24Z</time>
      </trkpt>
      <trkpt lat="45.7953" lon="6.14337">
        <ele>695.17041</ele>
        <time>2011-03-12T15:15:33Z</time>
      </trkpt>
      <trkpt lat="45.79523" lon="6.14349">
        <ele>697.093018</ele>
        <time>2011-03-12T15:15:43Z</time>
      </trkpt>
      <trkpt lat="45.79517" lon="6.14359">
        <ele>700.458008</ele>
        <time>2011-03-12T15:15:52Z</time>
      </trkpt>
      <trkpt lat="45.79516" lon="6.14363">
        <ele>700.458008</ele>
        <time>2011-03-12T15:15:54Z</time>
      </trkpt>
      <trkpt lat="45.79522" lon="6.14374">
        <ele>702.380371</ele>
        <time>2011-03-12T15:16:01Z</time>
      </trkpt>
      <trkpt lat="45.79533" lon="6.14377">
        <ele>703.82251</ele>
        <time>2011-03-12T15:16:10Z</time>
      </trkpt>
      <trkpt lat="45.79543" lon="6.1438">
        <ele>705.264404</ele>
        <time>2011-03-12T15:16:20Z</time>
      </trkpt>
      <trkpt lat="45.79553" lon="6.1438">
        <ele>706.225586</ele>
        <time>2011-03-12T15:16:29Z</time>
      </trkpt>
      <trkpt lat="45.79564" lon="6.1438">
        <ele>709.590332</ele>
        <time>2011-03-12T15:16:38Z</time>
      </trkpt>
      <trkpt lat="45.79567" lon="6.14379">
        <ele>709.590332</ele>
        <time>2011-03-12T15:16:40Z</time>
      </trkpt>
      <trkpt lat="45.79581" lon="6.14381">
        <ele>711.512939</ele>
        <time>2011-03-12T15:16:50Z</time>
      </trkpt>
      <trkpt lat="45.79595" lon="6.1439">
        <ele>713.916016</ele>
        <time>2011-03-12T15:17:01Z</time>
      </trkpt>
      <trkpt lat="45.79609" lon="6.14398">
        <ele>716.800293</ele>
        <time>2011-03-12T15:17:12Z</time>
      </trkpt>
      <trkpt lat="45.79622" lon="6.14405">
        <ele>718.7229</ele>
        <time>2011-03-12T15:17:22Z</time>
      </trkpt>
      <trkpt lat="45.79632" lon="6.14415">
        <ele>720.645508</ele>
        <time>2011-03-12T15:17:32Z</time>
      </trkpt>
      <trkpt lat="45.79638" lon="6.14433">
        <ele>722.087402</ele>
        <time>2011-03-12T15:17:43Z</time>
      </trkpt>
      <trkpt lat="45.79643" lon="6.14453">
        <ele>724.01001</ele>
        <time>2011-03-12T15:17:53Z</time>
      </trkpt>
      <trkpt lat="45.79646" lon="6.14474">
        <ele>726.894043</ele>
        <time>2011-03-12T15:18:04Z</time>
      </trkpt>
      <trkpt lat="45.79644" lon="6.14505">
        <ele>728.335938</ele>
        <time>2011-03-12T15:18:20Z</time>
      </trkpt>
      <trkpt lat="45.79637" lon="6.14533">
        <ele>728.81665</ele>
        <time>2011-03-12T15:18:35Z</time>
      </trkpt>
      <trkpt lat="45.79632" lon="6.14555">
        <ele>728.335938</ele>
        <time>2011-03-12T15:18:48Z</time>
      </trkpt>
      <trkpt lat="45.7963" lon="6.14567">
        <ele>729.297119</ele>
        <time>2011-03-12T15:18:57Z</time>
      </trkpt>
      <trkpt lat="45.79628" lon="6.1458">
        <ele>728.81665</ele>
        <time>2011-03-12T15:19:07Z</time>
      </trkpt>
      <trkpt lat="45.79628" lon="6.14584">
        <ele>729.297119</ele>
        <time>2011-03-12T15:19:16Z</time>
      </trkpt>
      <trkpt lat="45.79621" lon="6.1461">
        <ele>729.777832</ele>
        <time>2011-03-12T15:23:35Z</time>
      </trkpt>
      <trkpt lat="45.79622" lon="6.14627">
        <ele>728.81665</ele>
        <time>2011-03-12T15:23:49Z</time>
      </trkpt>
      <trkpt lat="45.79625" lon="6.14643">
        <ele>728.335938</ele>
        <time>2011-03-12T15:24:00Z</time>
      </trkpt>
      <trkpt lat="45.79632" lon="6.14658">
        <ele>728.335938</ele>
        <time>2011-03-12T15:24:11Z</time>
      </trkpt>
      <trkpt lat="45.79634" lon="6.14667">
        <ele>728.335938</ele>
        <time>2011-03-12T15:24:17Z</time>
      </trkpt>
      <trkpt lat="45.79631" lon="6.14681">
        <ele>728.81665</ele>
        <time>2011-03-12T15:24:29Z</time>
      </trkpt>
      <trkpt lat="45.79626" lon="6.14695">
        <ele>728.81665</ele>
        <time>2011-03-12T15:24:39Z</time>
      </trkpt>
      <trkpt lat="45.7962" lon="6.14709">
        <ele>729.297119</ele>
        <time>2011-03-12T15:24:48Z</time>
      </trkpt>
      <trkpt lat="45.79615" lon="6.14723">
        <ele>729.297119</ele>
        <time>2011-03-12T15:24:56Z</time>
      </trkpt>
      <trkpt lat="45.79611" lon="6.14741">
        <ele>730.258545</ele>
        <time>2011-03-12T15:25:07Z</time>
      </trkpt>
      <trkpt lat="45.79613" lon="6.1476">
        <ele>731.700439</ele>
        <time>2011-03-12T15:25:16Z</time>
      </trkpt>
      <trkpt lat="45.79619" lon="6.1478">
        <ele>733.623291</ele>
        <time>2011-03-12T15:25:26Z</time>
      </trkpt>
      <trkpt lat="45.79625" lon="6.14793">
        <ele>733.623291</ele>
        <time>2011-03-12T15:25:33Z</time>
      </trkpt>
      <trkpt lat="45.79633" lon="6.14805">
        <ele>733.142578</ele>
        <time>2011-03-12T15:25:44Z</time>
      </trkpt>
      <trkpt lat="45.79636" lon="6.14805">
        <ele>734.104004</ele>
        <time>2011-03-12T15:25:51Z</time>
      </trkpt>
      <trkpt lat="45.79645" lon="6.14802">
        <ele>732.662109</ele>
        <time>2011-03-12T15:26:02Z</time>
      </trkpt>
      <trkpt lat="45.79652" lon="6.148">
        <ele>732.181396</ele>
        <time>2011-03-12T15:26:10Z</time>
      </trkpt>
      <trkpt lat="45.79655" lon="6.14799">
        <ele>731.700439</ele>
        <time>2011-03-12T15:26:18Z</time>
      </trkpt>
      <trkpt lat="45.79661" lon="6.14796">
        <ele>731.700439</ele>
        <time>2011-03-12T15:26:57Z</time>
      </trkpt>
      <trkpt lat="45.79669" lon="6.14791">
        <ele>730.739258</ele>
        <time>2011-03-12T15:27:08Z</time>
      </trkpt>
      <trkpt lat="45.79671" lon="6.1479">
        <ele>730.258545</ele>
        <time>2011-03-12T15:27:10Z</time>
      </trkpt>
      <trkpt lat="45.79688" lon="6.14787">
        <ele>729.777832</ele>
        <time>2011-03-12T15:27:24Z</time>
      </trkpt>
      <trkpt lat="45.79703" lon="6.14782">
        <ele>729.297119</ele>
        <time>2011-03-12T15:27:37Z</time>
      </trkpt>
      <trkpt lat="45.79715" lon="6.1478">
        <ele>728.335938</ele>
        <time>2011-03-12T15:27:47Z</time>
      </trkpt>
      <trkpt lat="45.79727" lon="6.14778">
        <ele>727.374756</ele>
        <time>2011-03-12T15:27:57Z</time>
      </trkpt>
      <trkpt lat="45.79741" lon="6.14781">
        <ele>726.41333</ele>
        <time>2011-03-12T15:28:07Z</time>
      </trkpt>
      <trkpt lat="45.79757" lon="6.14789">
        <ele>725.932617</ele>
        <time>2011-03-12T15:28:20Z</time>
      </trkpt>
      <trkpt lat="45.79772" lon="6.14797">
        <ele>724.971436</ele>
        <time>2011-03-12T15:28:32Z</time>
      </trkpt>
      <trkpt lat="45.79791" lon="6.14808">
        <ele>724.01001</ele>
        <time>2011-03-12T15:28:47Z</time>
      </trkpt>
      <trkpt lat="45.79808" lon="6.14817">
        <ele>723.529541</ele>
        <time>2011-03-12T15:29:00Z</time>
      </trkpt>
      <trkpt lat="45.79823" lon="6.14814">
        <ele>723.529541</ele>
        <time>2011-03-12T15:29:12Z</time>
      </trkpt>
      <trkpt lat="45.79839" lon="6.14805">
        <ele>723.048828</ele>
        <time>2011-03-12T15:29:24Z</time>
      </trkpt>
      <trkpt lat="45.79853" lon="6.14795">
        <ele>722.568115</ele>
        <time>2011-03-12T15:29:35Z</time>
      </trkpt>
      <trkpt lat="45.79868" lon="6.14781">
        <ele>722.087402</ele>
        <time>2011-03-12T15:29:47Z</time>
      </trkpt>
      <trkpt lat="45.79881" lon="6.14765">
        <ele>721.606689</ele>
        <time>2011-03-12T15:30:00Z</time>
      </trkpt>
      <trkpt lat="45.79895" lon="6.14744">
        <ele>720.645508</ele>
        <time>2011-03-12T15:30:14Z</time>
      </trkpt>
      <trkpt lat="45.79908" lon="6.14726">
        <ele>718.7229</ele>
        <time>2011-03-12T15:30:28Z</time>
      </trkpt>
      <trkpt lat="45.79918" lon="6.14719">
        <ele>715.838867</ele>
        <time>2011-03-12T15:30:38Z</time>
      </trkpt>
      <trkpt lat="45.79931" lon="6.14712">
        <ele>713.916016</ele>
        <time>2011-03-12T15:30:49Z</time>
      </trkpt>
      <trkpt lat="45.79945" lon="6.14703">
        <ele>711.512939</ele>
        <time>2011-03-12T15:31:03Z</time>
      </trkpt>
      <trkpt lat="45.79952" lon="6.14697">
        <ele>710.070801</ele>
        <time>2011-03-12T15:31:13Z</time>
      </trkpt>
      <trkpt lat="45.79958" lon="6.1469">
        <ele>708.628906</ele>
        <time>2011-03-12T15:31:28Z</time>
      </trkpt>
      <trkpt lat="45.79967" lon="6.14686">
        <ele>708.148438</ele>
        <time>2011-03-12T15:31:37Z</time>
      </trkpt>
      <trkpt lat="45.79979" lon="6.14677">
        <ele>707.187012</ele>
        <time>2011-03-12T15:31:47Z</time>
      </trkpt>
      <trkpt lat="45.79989" lon="6.14664">
        <ele>705.745117</ele>
        <time>2011-03-12T15:31:55Z</time>
      </trkpt>
      <trkpt lat="45.79995" lon="6.14646">
        <ele>703.82251</ele>
        <time>2011-03-12T15:32:04Z</time>
      </trkpt>
      <trkpt lat="45.79991" lon="6.14626">
        <ele>700.938477</ele>
        <time>2011-03-12T15:32:15Z</time>
      </trkpt>
      <trkpt lat="45.79989" lon="6.14622">
        <ele>699.977051</ele>
        <time>2011-03-12T15:32:18Z</time>
      </trkpt>
      <trkpt lat="45.79978" lon="6.1461">
        <ele>698.534912</ele>
        <time>2011-03-12T15:32:31Z</time>
      </trkpt>
      <trkpt lat="45.79965" lon="6.14599">
        <ele>697.093018</ele>
        <time>2011-03-12T15:32:44Z</time>
      </trkpt>
      <trkpt lat="45.79948" lon="6.14586">
        <ele>696.612549</ele>
        <time>2011-03-12T15:32:58Z</time>
      </trkpt>
      <trkpt lat="45.79931" lon="6.14575">
        <ele>695.651123</ele>
        <time>2011-03-12T15:33:11Z</time>
      </trkpt>
      <trkpt lat="45.79911" lon="6.14565">
        <ele>694.209229</ele>
        <time>2011-03-12T15:33:26Z</time>
      </trkpt>
      <trkpt lat="45.79889" lon="6.14555">
        <ele>691.805908</ele>
        <time>2011-03-12T15:33:43Z</time>
      </trkpt>
      <trkpt lat="45.79879" lon="6.14546">
        <ele>690.364014</ele>
        <time>2011-03-12T15:33:53Z</time>
      </trkpt>
      <trkpt lat="45.79879" lon="6.14543">
        <ele>689.883301</ele>
        <time>2011-03-12T15:33:55Z</time>
      </trkpt>
      <trkpt lat="45.79881" lon="6.14536">
        <ele>688.441406</ele>
        <time>2011-03-12T15:34:03Z</time>
      </trkpt>
      <trkpt lat="45.79892" lon="6.14533">
        <ele>686.999268</ele>
        <time>2011-03-12T15:34:13Z</time>
      </trkpt>
      <trkpt lat="45.799" lon="6.14535">
        <ele>685.557373</ele>
        <time>2011-03-12T15:34:21Z</time>
      </trkpt>
      <trkpt lat="45.79911" lon="6.14535">
        <ele>684.596191</ele>
        <time>2011-03-12T15:34:30Z</time>
      </trkpt>
      <trkpt lat="45.7992" lon="6.14536">
        <ele>684.115479</ele>
        <time>2011-03-12T15:34:38Z</time>
      </trkpt>
      <trkpt lat="45.79932" lon="6.14539">
        <ele>683.153809</ele>
        <time>2011-03-12T15:34:48Z</time>
      </trkpt>
      <trkpt lat="45.79947" lon="6.14543">
        <ele>681.231445</ele>
        <time>2011-03-12T15:34:58Z</time>
      </trkpt>
      <trkpt lat="45.7996" lon="6.14545">
        <ele>680.27002</ele>
        <time>2011-03-12T15:35:08Z</time>
      </trkpt>
      <trkpt lat="45.79973" lon="6.14549">
        <ele>678.828125</ele>
        <time>2011-03-12T15:35:18Z</time>
      </trkpt>
      <trkpt lat="45.79984" lon="6.14553">
        <ele>676.905518</ele>
        <time>2011-03-12T15:35:28Z</time>
      </trkpt>
      <trkpt lat="45.79998" lon="6.14554">
        <ele>675.463379</ele>
        <time>2011-03-12T15:35:37Z</time>
      </trkpt>
      <trkpt lat="45.80011" lon="6.14554">
        <ele>674.502197</ele>
        <time>2011-03-12T15:35:47Z</time>
      </trkpt>
      <trkpt lat="45.80026" lon="6.14553">
        <ele>674.021484</ele>
        <time>2011-03-12T15:35:57Z</time>
      </trkpt>
      <trkpt lat="45.8004" lon="6.14552">
        <ele>671.618164</ele>
        <time>2011-03-12T15:36:07Z</time>
      </trkpt>
      <trkpt lat="45.80046" lon="6.14551">
        <ele>670.656982</ele>
        <time>2011-03-12T15:36:11Z</time>
      </trkpt>
      <trkpt lat="45.8006" lon="6.14553">
        <ele>669.215088</ele>
        <time>2011-03-12T15:36:23Z</time>
      </trkpt>
      <trkpt lat="45.80063" lon="6.14553">
        <ele>668.734375</ele>
        <time>2011-03-12T15:36:25Z</time>
      </trkpt>
      <trkpt lat="45.80075" lon="6.14553">
        <ele>666.811523</ele>
        <time>2011-03-12T15:36:35Z</time>
      </trkpt>
      <trkpt lat="45.80087" lon="6.14555">
        <ele>665.850342</ele>
        <time>2011-03-12T15:36:44Z</time>
      </trkpt>
      <trkpt lat="45.80101" lon="6.14555">
        <ele>664.408203</ele>
        <time>2011-03-12T15:36:54Z</time>
      </trkpt>
      <trkpt lat="45.80113" lon="6.14557">
        <ele>661.524414</ele>
        <time>2011-03-12T15:37:04Z</time>
      </trkpt>
      <trkpt lat="45.80127" lon="6.14561">
        <ele>658.640381</ele>
        <time>2011-03-12T15:37:15Z</time>
      </trkpt>
      <trkpt lat="45.80142" lon="6.14568">
        <ele>657.198486</ele>
        <time>2011-03-12T15:37:26Z</time>
      </trkpt>
      <trkpt lat="45.8015" lon="6.1457">
        <ele>655.275879</ele>
        <time>2011-03-12T15:37:32Z</time>
      </trkpt>
      <trkpt lat="45.8016" lon="6.14575">
        <ele>653.353271</ele>
        <time>2011-03-12T15:37:42Z</time>
      </trkpt>
      <trkpt lat="45.80171" lon="6.14576">
        <ele>651.911133</ele>
        <time>2011-03-12T15:37:51Z</time>
      </trkpt>
      <trkpt lat="45.80185" lon="6.14578">
        <ele>651.43042</ele>
        <time>2011-03-12T15:38:00Z</time>
      </trkpt>
      <trkpt lat="45.80196" lon="6.14579">
        <ele>649.507813</ele>
        <time>2011-03-12T15:38:07Z</time>
      </trkpt>
      <trkpt lat="45.80207" lon="6.1458">
        <ele>647.585205</ele>
        <time>2011-03-12T15:38:16Z</time>
      </trkpt>
      <trkpt lat="45.80217" lon="6.14582">
        <ele>645.662598</ele>
        <time>2011-03-12T15:38:24Z</time>
      </trkpt>
      <trkpt lat="45.80227" lon="6.14593">
        <ele>644.220703</ele>
        <time>2011-03-12T15:38:34Z</time>
      </trkpt>
      <trkpt lat="45.80225" lon="6.14605">
        <ele>642.298096</ele>
        <time>2011-03-12T15:38:42Z</time>
      </trkpt>
      <trkpt lat="45.80223" lon="6.14622">
        <ele>641.33667</ele>
        <time>2011-03-12T15:38:52Z</time>
      </trkpt>
      <trkpt lat="45.80231" lon="6.14644">
        <ele>640.855957</ele>
        <time>2011-03-12T15:39:03Z</time>
      </trkpt>
      <trkpt lat="45.80245" lon="6.14654">
        <ele>640.855957</ele>
        <time>2011-03-12T15:39:15Z</time>
      </trkpt>
      <trkpt lat="45.80255" lon="6.14651">
        <ele>641.817383</ele>
        <time>2011-03-12T15:39:24Z</time>
      </trkpt>
      <trkpt lat="45.80263" lon="6.14646">
        <ele>642.298096</ele>
        <time>2011-03-12T15:39:33Z</time>
      </trkpt>
      <trkpt lat="45.80275" lon="6.14645">
        <ele>644.220703</ele>
        <time>2011-03-12T15:39:41Z</time>
      </trkpt>
      <trkpt lat="45.80291" lon="6.14646">
        <ele>644.220703</ele>
        <time>2011-03-12T15:39:53Z</time>
      </trkpt>
      <trkpt lat="45.80305" lon="6.14649">
        <ele>645.662598</ele>
        <time>2011-03-12T15:40:04Z</time>
      </trkpt>
      <trkpt lat="45.80317" lon="6.14651">
        <ele>646.624023</ele>
        <time>2011-03-12T15:40:13Z</time>
      </trkpt>
      <trkpt lat="45.80334" lon="6.14655">
        <ele>648.065918</ele>
        <time>2011-03-12T15:40:26Z</time>
      </trkpt>
      <trkpt lat="45.80349" lon="6.14658">
        <ele>649.0271</ele>
        <time>2011-03-12T15:40:37Z</time>
      </trkpt>
      <trkpt lat="45.80364" lon="6.14661">
        <ele>649.988525</ele>
        <time>2011-03-12T15:40:48Z</time>
      </trkpt>
      <trkpt lat="45.80374" lon="6.14674">
        <ele>651.43042</ele>
        <time>2011-03-12T15:40:59Z</time>
      </trkpt>
      <trkpt lat="45.80374" lon="6.14685">
        <ele>652.391846</ele>
        <time>2011-03-12T15:41:08Z</time>
      </trkpt>
      <trkpt lat="45.80374" lon="6.14692">
        <ele>652.391846</ele>
        <time>2011-03-12T15:41:33Z</time>
      </trkpt>
      <trkpt lat="45.80372" lon="6.14696">
        <ele>652.391846</ele>
        <time>2011-03-12T15:41:38Z</time>
      </trkpt>
      <trkpt lat="45.80368" lon="6.14709">
        <ele>652.391846</ele>
        <time>2011-03-12T15:41:48Z</time>
      </trkpt>
      <trkpt lat="45.80363" lon="6.14726">
        <ele>652.872559</ele>
        <time>2011-03-12T15:42:00Z</time>
      </trkpt>
      <trkpt lat="45.80357" lon="6.14744">
        <ele>653.833984</ele>
        <time>2011-03-12T15:42:12Z</time>
      </trkpt>
      <trkpt lat="45.80355" lon="6.14748">
        <ele>654.314697</ele>
        <time>2011-03-12T15:42:15Z</time>
      </trkpt>
      <trkpt lat="45.80352" lon="6.14757">
        <ele>655.275879</ele>
        <time>2011-03-12T15:42:22Z</time>
      </trkpt>
      <trkpt lat="45.80351" lon="6.14773">
        <ele>656.717773</ele>
        <time>2011-03-12T15:42:33Z</time>
      </trkpt>
      <trkpt lat="45.80352" lon="6.14786">
        <ele>658.159912</ele>
        <time>2011-03-12T15:42:41Z</time>
      </trkpt>
      <trkpt lat="45.80354" lon="6.1479">
        <ele>658.159912</ele>
        <time>2011-03-12T15:42:43Z</time>
      </trkpt>
      <trkpt lat="45.80357" lon="6.14802">
        <ele>660.562988</ele>
        <time>2011-03-12T15:42:51Z</time>
      </trkpt>
      <trkpt lat="45.80356" lon="6.14815">
        <ele>662.966309</ele>
        <time>2011-03-12T15:43:00Z</time>
      </trkpt>
      <trkpt lat="45.80355" lon="6.14829">
        <ele>663.92749</ele>
        <time>2011-03-12T15:43:09Z</time>
      </trkpt>
      <trkpt lat="45.80357" lon="6.14844">
        <ele>666.330811</ele>
        <time>2011-03-12T15:43:18Z</time>
      </trkpt>
      <trkpt lat="45.80358" lon="6.14859">
        <ele>667.292236</ele>
        <time>2011-03-12T15:43:27Z</time>
      </trkpt>
      <trkpt lat="45.80362" lon="6.14868">
        <ele>668.253662</ele>
        <time>2011-03-12T15:43:34Z</time>
      </trkpt>
      <trkpt lat="45.80367" lon="6.14869">
        <ele>668.734375</ele>
        <time>2011-03-12T15:43:40Z</time>
      </trkpt>
      <trkpt lat="45.8037" lon="6.14868">
        <ele>669.215088</ele>
        <time>2011-03-12T15:43:42Z</time>
      </trkpt>
      <trkpt lat="45.80375" lon="6.14869">
        <ele>670.17627</ele>
        <time>2011-03-12T15:43:46Z</time>
      </trkpt>
      <trkpt lat="45.80379" lon="6.14876">
        <ele>670.656982</ele>
        <time>2011-03-12T15:43:53Z</time>
      </trkpt>
      <trkpt lat="45.8038" lon="6.1488">
        <ele>671.137695</ele>
        <time>2011-03-12T15:43:56Z</time>
      </trkpt>
      <trkpt lat="45.80382" lon="6.14889">
        <ele>672.57959</ele>
        <time>2011-03-12T15:44:04Z</time>
      </trkpt>
      <trkpt lat="45.80382" lon="6.14896">
        <ele>674.021484</ele>
        <time>2011-03-12T15:44:10Z</time>
      </trkpt>
      <trkpt lat="45.80382" lon="6.14904">
        <ele>674.98291</ele>
        <time>2011-03-12T15:44:15Z</time>
      </trkpt>
      <trkpt lat="45.80383" lon="6.14912">
        <ele>676.424805</ele>
        <time>2011-03-12T15:44:20Z</time>
      </trkpt>
      <trkpt lat="45.80384" lon="6.1492">
        <ele>677.38623</ele>
        <time>2011-03-12T15:44:24Z</time>
      </trkpt>
      <trkpt lat="45.8039" lon="6.14929">
        <ele>677.866699</ele>
        <time>2011-03-12T15:44:32Z</time>
      </trkpt>
      <trkpt lat="45.80395" lon="6.14933">
        <ele>678.828125</ele>
        <time>2011-03-12T15:44:38Z</time>
      </trkpt>
      <trkpt lat="45.80406" lon="6.14945">
        <ele>680.27002</ele>
        <time>2011-03-12T15:44:46Z</time>
      </trkpt>
      <trkpt lat="45.80412" lon="6.14952">
        <ele>680.750732</ele>
        <time>2011-03-12T15:44:53Z</time>
      </trkpt>
      <trkpt lat="45.80426" lon="6.14952">
        <ele>681.711914</ele>
        <time>2011-03-12T15:45:02Z</time>
      </trkpt>
      <trkpt lat="45.8044" lon="6.14954">
        <ele>682.67334</ele>
        <time>2011-03-12T15:45:12Z</time>
      </trkpt>
      <trkpt lat="45.80446" lon="6.14956">
        <ele>683.634521</ele>
        <time>2011-03-12T15:45:18Z</time>
      </trkpt>
      <trkpt lat="45.80452" lon="6.14951">
        <ele>683.634521</ele>
        <time>2011-03-12T15:45:23Z</time>
      </trkpt>
      <trkpt lat="45.80461" lon="6.14946">
        <ele>684.596191</ele>
        <time>2011-03-12T15:45:32Z</time>
      </trkpt>
      <trkpt lat="45.80472" lon="6.14941">
        <ele>686.038086</ele>
        <time>2011-03-12T15:45:41Z</time>
      </trkpt>
      <trkpt lat="45.80481" lon="6.14937">
        <ele>688.441406</ele>
        <time>2011-03-12T15:45:50Z</time>
      </trkpt>
      <trkpt lat="45.8049" lon="6.14939">
        <ele>689.883301</ele>
        <time>2011-03-12T15:45:58Z</time>
      </trkpt>
      <trkpt lat="45.80492" lon="6.14944">
        <ele>690.844482</ele>
        <time>2011-03-12T15:46:03Z</time>
      </trkpt>
      <trkpt lat="45.80487" lon="6.14949">
        <ele>691.805908</ele>
        <time>2011-03-12T15:46:14Z</time>
      </trkpt>
      <trkpt lat="45.80483" lon="6.14952">
        <ele>692.767334</ele>
        <time>2011-03-12T15:46:27Z</time>
      </trkpt>
      <trkpt lat="45.80476" lon="6.14967">
        <ele>693.247803</ele>
        <time>2011-03-12T15:46:38Z</time>
      </trkpt>
      <trkpt lat="45.80473" lon="6.14985">
        <ele>694.209229</ele>
        <time>2011-03-12T15:46:49Z</time>
      </trkpt>
      <trkpt lat="45.80471" lon="6.15004">
        <ele>695.651123</ele>
        <time>2011-03-12T15:47:00Z</time>
      </trkpt>
      <trkpt lat="45.80467" lon="6.15026">
        <ele>698.054443</ele>
        <time>2011-03-12T15:47:12Z</time>
      </trkpt>
      <trkpt lat="45.80465" lon="6.15052">
        <ele>699.496338</ele>
        <time>2011-03-12T15:47:25Z</time>
      </trkpt>
      <trkpt lat="45.80466" lon="6.15079">
        <ele>701.419189</ele>
        <time>2011-03-12T15:47:38Z</time>
      </trkpt>
      <trkpt lat="45.80465" lon="6.15102">
        <ele>702.861084</ele>
        <time>2011-03-12T15:47:50Z</time>
      </trkpt>
      <trkpt lat="45.80464" lon="6.1512">
        <ele>705.264404</ele>
        <time>2011-03-12T15:47:59Z</time>
      </trkpt>
      <trkpt lat="45.80463" lon="6.15144">
        <ele>707.187012</ele>
        <time>2011-03-12T15:48:11Z</time>
      </trkpt>
      <trkpt lat="45.80465" lon="6.15165">
        <ele>709.109619</ele>
        <time>2011-03-12T15:48:21Z</time>
      </trkpt>
      <trkpt lat="45.80467" lon="6.15188">
        <ele>711.512939</ele>
        <time>2011-03-12T15:48:33Z</time>
      </trkpt>
      <trkpt lat="45.80467" lon="6.1521">
        <ele>711.512939</ele>
        <time>2011-03-12T15:48:44Z</time>
      </trkpt>
      <trkpt lat="45.80468" lon="6.15236">
        <ele>712.954834</ele>
        <time>2011-03-12T15:48:57Z</time>
      </trkpt>
      <trkpt lat="45.80463" lon="6.15262">
        <ele>714.396729</ele>
        <time>2011-03-12T15:49:10Z</time>
      </trkpt>
      <trkpt lat="45.8046" lon="6.1527">
        <ele>716.31958</ele>
        <time>2011-03-12T15:49:15Z</time>
      </trkpt>
      <trkpt lat="45.8045" lon="6.15288">
        <ele>717.761475</ele>
        <time>2011-03-12T15:49:26Z</time>
      </trkpt>
      <trkpt lat="45.80441" lon="6.15306">
        <ele>719.684326</ele>
        <time>2011-03-12T15:49:37Z</time>
      </trkpt>
      <trkpt lat="45.80434" lon="6.15324">
        <ele>721.126221</ele>
        <time>2011-03-12T15:49:49Z</time>
      </trkpt>
      <trkpt lat="45.80434" lon="6.15329">
        <ele>721.606689</ele>
        <time>2011-03-12T15:49:57Z</time>
      </trkpt>
      <trkpt lat="45.80435" lon="6.15332">
        <ele>721.606689</ele>
        <time>2011-03-12T15:50:26Z</time>
      </trkpt>
      <trkpt lat="45.80438" lon="6.15336">
        <ele>722.568115</ele>
        <time>2011-03-12T15:51:20Z</time>
      </trkpt>
      <trkpt lat="45.80442" lon="6.1534">
        <ele>722.568115</ele>
        <time>2011-03-12T15:51:25Z</time>
      </trkpt>
      <trkpt lat="45.80458" lon="6.15349">
        <ele>723.529541</ele>
        <time>2011-03-12T15:51:40Z</time>
      </trkpt>
      <trkpt lat="45.80475" lon="6.15358">
        <ele>723.529541</ele>
        <time>2011-03-12T15:51:54Z</time>
      </trkpt>
      <trkpt lat="45.80493" lon="6.15368">
        <ele>724.971436</ele>
        <time>2011-03-12T15:52:08Z</time>
      </trkpt>
      <trkpt lat="45.80509" lon="6.15378">
        <ele>725.932617</ele>
        <time>2011-03-12T15:52:21Z</time>
      </trkpt>
      <trkpt lat="45.80525" lon="6.15386">
        <ele>726.41333</ele>
        <time>2011-03-12T15:52:34Z</time>
      </trkpt>
      <trkpt lat="45.80541" lon="6.15393">
        <ele>726.894043</ele>
        <time>2011-03-12T15:52:46Z</time>
      </trkpt>
      <trkpt lat="45.80559" lon="6.15401">
        <ele>726.894043</ele>
        <time>2011-03-12T15:53:00Z</time>
      </trkpt>
      <trkpt lat="45.8058" lon="6.15408">
        <ele>727.374756</ele>
        <time>2011-03-12T15:53:15Z</time>
      </trkpt>
      <trkpt lat="45.806" lon="6.15413">
        <ele>727.374756</ele>
        <time>2011-03-12T15:53:29Z</time>
      </trkpt>
      <trkpt lat="45.80618" lon="6.1542">
        <ele>727.374756</ele>
        <time>2011-03-12T15:53:42Z</time>
      </trkpt>
      <trkpt lat="45.8064" lon="6.15428">
        <ele>727.374756</ele>
        <time>2011-03-12T15:53:58Z</time>
      </trkpt>
      <trkpt lat="45.80653" lon="6.15432">
        <ele>727.374756</ele>
        <time>2011-03-12T15:54:08Z</time>
      </trkpt>
      <trkpt lat="45.80671" lon="6.15437">
        <ele>727.855225</ele>
        <time>2011-03-12T15:54:22Z</time>
      </trkpt>
      <trkpt lat="45.80681" lon="6.15437">
        <ele>727.374756</ele>
        <time>2011-03-12T15:54:31Z</time>
      </trkpt>
      <trkpt lat="45.80697" lon="6.15435">
        <ele>727.374756</ele>
        <time>2011-03-12T15:54:43Z</time>
      </trkpt>
      <trkpt lat="45.80711" lon="6.15433">
        <ele>727.374756</ele>
        <time>2011-03-12T15:54:53Z</time>
      </trkpt>
      <trkpt lat="45.80724" lon="6.15437">
        <ele>728.335938</ele>
        <time>2011-03-12T15:55:03Z</time>
      </trkpt>
      <trkpt lat="45.80738" lon="6.15439">
        <ele>729.297119</ele>
        <time>2011-03-12T15:55:14Z</time>
      </trkpt>
      <trkpt lat="45.80755" lon="6.15446">
        <ele>730.258545</ele>
        <time>2011-03-12T15:55:27Z</time>
      </trkpt>
      <trkpt lat="45.80767" lon="6.15459">
        <ele>729.777832</ele>
        <time>2011-03-12T15:55:38Z</time>
      </trkpt>
      <trkpt lat="45.80779" lon="6.15474">
        <ele>730.739258</ele>
        <time>2011-03-12T15:55:49Z</time>
      </trkpt>
      <trkpt lat="45.80794" lon="6.15493">
        <ele>731.219971</ele>
        <time>2011-03-12T15:56:03Z</time>
      </trkpt>
      <trkpt lat="45.80806" lon="6.15506">
        <ele>732.181396</ele>
        <time>2011-03-12T15:56:16Z</time>
      </trkpt>
      <trkpt lat="45.80824" lon="6.15524">
        <ele>733.142578</ele>
        <time>2011-03-12T15:56:32Z</time>
      </trkpt>
      <trkpt lat="45.80843" lon="6.15546">
        <ele>735.06543</ele>
        <time>2011-03-12T15:56:50Z</time>
      </trkpt>
      <trkpt lat="45.80854" lon="6.15567">
        <ele>736.026611</ele>
        <time>2011-03-12T15:57:04Z</time>
      </trkpt>
      <trkpt lat="45.80863" lon="6.15593">
        <ele>737.468506</ele>
        <time>2011-03-12T15:57:19Z</time>
      </trkpt>
      <trkpt lat="45.80873" lon="6.15617">
        <ele>737.949219</ele>
        <time>2011-03-12T15:57:33Z</time>
      </trkpt>
      <trkpt lat="45.80881" lon="6.15642">
        <ele>739.391113</ele>
        <time>2011-03-12T15:57:47Z</time>
      </trkpt>
      <trkpt lat="45.8089" lon="6.15672">
        <ele>741.313721</ele>
        <time>2011-03-12T15:58:04Z</time>
      </trkpt>
      <trkpt lat="45.80897" lon="6.15693">
        <ele>743.236328</ele>
        <time>2011-03-12T15:58:16Z</time>
      </trkpt>
      <trkpt lat="45.80906" lon="6.1571">
        <ele>745.158936</ele>
        <time>2011-03-12T15:58:27Z</time>
      </trkpt>
      <trkpt lat="45.8092" lon="6.15726">
        <ele>745.158936</ele>
        <time>2011-03-12T15:58:40Z</time>
      </trkpt>
      <trkpt lat="45.80936" lon="6.15732">
        <ele>745.158936</ele>
        <time>2011-03-12T15:58:52Z</time>
      </trkpt>
      <trkpt lat="45.80951" lon="6.15734">
        <ele>745.158936</ele>
        <time>2011-03-12T15:59:02Z</time>
      </trkpt>
      <trkpt lat="45.80965" lon="6.15739">
        <ele>744.678223</ele>
        <time>2011-03-12T15:59:12Z</time>
      </trkpt>
      <trkpt lat="45.80977" lon="6.15743">
        <ele>745.158936</ele>
        <time>2011-03-12T15:59:21Z</time>
      </trkpt>
      <trkpt lat="45.80998" lon="6.15752">
        <ele>745.639648</ele>
        <time>2011-03-12T15:59:36Z</time>
      </trkpt>
      <trkpt lat="45.81016" lon="6.15762">
        <ele>746.120361</ele>
        <time>2011-03-12T15:59:50Z</time>
      </trkpt>
      <trkpt lat="45.81024" lon="6.15779">
        <ele>746.601074</ele>
        <time>2011-03-12T16:00:01Z</time>
      </trkpt>
      <trkpt lat="45.81025" lon="6.15811">
        <ele>747.081543</ele>
        <time>2011-03-12T16:00:17Z</time>
      </trkpt>
      <trkpt lat="45.81029" lon="6.1584">
        <ele>748.043213</ele>
        <time>2011-03-12T16:00:31Z</time>
      </trkpt>
      <trkpt lat="45.81032" lon="6.15867">
        <ele>747.562256</ele>
        <time>2011-03-12T16:00:44Z</time>
      </trkpt>
      <trkpt lat="45.81035" lon="6.15894">
        <ele>747.562256</ele>
        <time>2011-03-12T16:00:57Z</time>
      </trkpt>
      <trkpt lat="45.81039" lon="6.15919">
        <ele>747.081543</ele>
        <time>2011-03-12T16:01:09Z</time>
      </trkpt>
      <trkpt lat="45.81044" lon="6.15943">
        <ele>746.601074</ele>
        <time>2011-03-12T16:01:22Z</time>
      </trkpt>
      <trkpt lat="45.81049" lon="6.15944">
        <ele>746.120361</ele>
        <time>2011-03-12T16:01:29Z</time>
      </trkpt>
      <trkpt lat="45.81053" lon="6.15942">
        <ele>746.601074</ele>
        <time>2011-03-12T16:01:33Z</time>
      </trkpt>
      <trkpt lat="45.81072" lon="6.15935">
        <ele>747.081543</ele>
        <time>2011-03-12T16:01:48Z</time>
      </trkpt>
      <trkpt lat="45.81091" lon="6.15932">
        <ele>747.562256</ele>
        <time>2011-03-12T16:02:02Z</time>
      </trkpt>
      <trkpt lat="45.81109" lon="6.15927">
        <ele>748.043213</ele>
        <time>2011-03-12T16:02:15Z</time>
      </trkpt>
      <trkpt lat="45.8112" lon="6.15915">
        <ele>749.004395</ele>
        <time>2011-03-12T16:02:25Z</time>
      </trkpt>
      <trkpt lat="45.81137" lon="6.15904">
        <ele>750.446533</ele>
        <time>2011-03-12T16:02:38Z</time>
      </trkpt>
      <trkpt lat="45.81157" lon="6.15896">
        <ele>749.96582</ele>
        <time>2011-03-12T16:02:52Z</time>
      </trkpt>
      <trkpt lat="45.8118" lon="6.15893">
        <ele>750.446533</ele>
        <time>2011-03-12T16:03:08Z</time>
      </trkpt>
      <trkpt lat="45.81198" lon="6.15896">
        <ele>751.407715</ele>
        <time>2011-03-12T16:03:22Z</time>
      </trkpt>
      <trkpt lat="45.81214" lon="6.15901">
        <ele>751.407715</ele>
        <time>2011-03-12T16:03:33Z</time>
      </trkpt>
      <trkpt lat="45.81228" lon="6.15904">
        <ele>750.927002</ele>
        <time>2011-03-12T16:03:44Z</time>
      </trkpt>
      <trkpt lat="45.81244" lon="6.15907">
        <ele>749.96582</ele>
        <time>2011-03-12T16:03:56Z</time>
      </trkpt>
      <trkpt lat="45.81259" lon="6.1591">
        <ele>748.523682</ele>
        <time>2011-03-12T16:04:07Z</time>
      </trkpt>
      <trkpt lat="45.81271" lon="6.15914">
        <ele>748.043213</ele>
        <time>2011-03-12T16:04:16Z</time>
      </trkpt>
      <trkpt lat="45.8128" lon="6.1592">
        <ele>747.081543</ele>
        <time>2011-03-12T16:04:24Z</time>
      </trkpt>
      <trkpt lat="45.81292" lon="6.15929">
        <ele>746.120361</ele>
        <time>2011-03-12T16:04:34Z</time>
      </trkpt>
      <trkpt lat="45.81303" lon="6.15933">
        <ele>745.158936</ele>
        <time>2011-03-12T16:04:42Z</time>
      </trkpt>
      <trkpt lat="45.81315" lon="6.15937">
        <ele>744.197754</ele>
        <time>2011-03-12T16:04:51Z</time>
      </trkpt>
      <trkpt lat="45.81325" lon="6.15939">
        <ele>742.755859</ele>
        <time>2011-03-12T16:04:58Z</time>
      </trkpt>
      <trkpt lat="45.81337" lon="6.15943">
        <ele>741.794434</ele>
        <time>2011-03-12T16:05:08Z</time>
      </trkpt>
      <trkpt lat="45.81347" lon="6.15948">
        <ele>741.313721</ele>
        <time>2011-03-12T16:05:17Z</time>
      </trkpt>
      <trkpt lat="45.81359" lon="6.15952">
        <ele>740.352539</ele>
        <time>2011-03-12T16:05:26Z</time>
      </trkpt>
      <trkpt lat="45.81367" lon="6.15955">
        <ele>740.352539</ele>
        <time>2011-03-12T16:05:32Z</time>
      </trkpt>
      <trkpt lat="45.81373" lon="6.15958">
        <ele>738.429932</ele>
        <time>2011-03-12T16:05:37Z</time>
      </trkpt>
      <trkpt lat="45.81385" lon="6.15964">
        <ele>736.987793</ele>
        <time>2011-03-12T16:05:47Z</time>
      </trkpt>
      <trkpt lat="45.81389" lon="6.15965">
        <ele>736.507324</ele>
        <time>2011-03-12T16:05:51Z</time>
      </trkpt>
      <trkpt lat="45.81401" lon="6.15973">
        <ele>734.584717</ele>
        <time>2011-03-12T16:06:00Z</time>
      </trkpt>
      <trkpt lat="45.81413" lon="6.15976">
        <ele>734.104004</ele>
        <time>2011-03-12T16:06:09Z</time>
      </trkpt>
      <trkpt lat="45.81425" lon="6.15979">
        <ele>732.181396</ele>
        <time>2011-03-12T16:06:19Z</time>
      </trkpt>
      <trkpt lat="45.81436" lon="6.15985">
        <ele>729.777832</ele>
        <time>2011-03-12T16:06:28Z</time>
      </trkpt>
      <trkpt lat="45.81446" lon="6.1599">
        <ele>727.855225</ele>
        <time>2011-03-12T16:06:37Z</time>
      </trkpt>
      <trkpt lat="45.81453" lon="6.16002">
        <ele>726.894043</ele>
        <time>2011-03-12T16:06:45Z</time>
      </trkpt>
      <trkpt lat="45.81453" lon="6.16004">
        <ele>726.894043</ele>
        <time>2011-03-12T16:06:46Z</time>
      </trkpt>
      <trkpt lat="45.81457" lon="6.16013">
        <ele>724.971436</ele>
        <time>2011-03-12T16:06:51Z</time>
      </trkpt>
      <trkpt lat="45.81457" lon="6.16017">
        <ele>724.490723</ele>
        <time>2011-03-12T16:06:53Z</time>
      </trkpt>
      <trkpt lat="45.81462" lon="6.16026">
        <ele>722.087402</ele>
        <time>2011-03-12T16:07:00Z</time>
      </trkpt>
      <trkpt lat="45.81466" lon="6.16032">
        <ele>720.164795</ele>
        <time>2011-03-12T16:07:06Z</time>
      </trkpt>
      <trkpt lat="45.81473" lon="6.16044">
        <ele>718.242188</ele>
        <time>2011-03-12T16:07:16Z</time>
      </trkpt>
      <trkpt lat="45.8148" lon="6.16053">
        <ele>714.877441</ele>
        <time>2011-03-12T16:07:24Z</time>
      </trkpt>
      <trkpt lat="45.81482" lon="6.16056">
        <ele>713.916016</ele>
        <time>2011-03-12T16:07:26Z</time>
      </trkpt>
      <trkpt lat="45.81486" lon="6.16064">
        <ele>711.993652</ele>
        <time>2011-03-12T16:07:31Z</time>
      </trkpt>
      <trkpt lat="45.81489" lon="6.16068">
        <ele>711.032227</ele>
        <time>2011-03-12T16:07:35Z</time>
      </trkpt>
      <trkpt lat="45.81502" lon="6.16065">
        <ele>709.590332</ele>
        <time>2011-03-12T16:07:45Z</time>
      </trkpt>
      <trkpt lat="45.81516" lon="6.1606">
        <ele>708.628906</ele>
        <time>2011-03-12T16:07:55Z</time>
      </trkpt>
      <trkpt lat="45.81531" lon="6.16056">
        <ele>707.187012</ele>
        <time>2011-03-12T16:08:06Z</time>
      </trkpt>
      <trkpt lat="45.81541" lon="6.16052">
        <ele>706.225586</ele>
        <time>2011-03-12T16:08:15Z</time>
      </trkpt>
      <trkpt lat="45.81551" lon="6.16051">
        <ele>704.783691</ele>
        <time>2011-03-12T16:08:24Z</time>
      </trkpt>
      <trkpt lat="45.81553" lon="6.16051">
        <ele>704.303223</ele>
        <time>2011-03-12T16:08:26Z</time>
      </trkpt>
      <trkpt lat="45.81569" lon="6.16047">
        <ele>703.82251</ele>
        <time>2011-03-12T16:08:37Z</time>
      </trkpt>
      <trkpt lat="45.81578" lon="6.16049">
        <ele>703.341797</ele>
        <time>2011-03-12T16:08:46Z</time>
      </trkpt>
      <trkpt lat="45.81592" lon="6.16051">
        <ele>701.419189</ele>
        <time>2011-03-12T16:08:57Z</time>
      </trkpt>
      <trkpt lat="45.81603" lon="6.16052">
        <ele>699.496338</ele>
        <time>2011-03-12T16:09:06Z</time>
      </trkpt>
      <trkpt lat="45.8161" lon="6.1605">
        <ele>698.054443</ele>
        <time>2011-03-12T16:09:13Z</time>
      </trkpt>
      <trkpt lat="45.81622" lon="6.16047">
        <ele>695.17041</ele>
        <time>2011-03-12T16:09:23Z</time>
      </trkpt>
      <trkpt lat="45.81633" lon="6.1604">
        <ele>692.767334</ele>
        <time>2011-03-12T16:09:33Z</time>
      </trkpt>
      <trkpt lat="45.81643" lon="6.16037">
        <ele>690.844482</ele>
        <time>2011-03-12T16:09:42Z</time>
      </trkpt>
      <trkpt lat="45.81651" lon="6.16035">
        <ele>688.922119</ele>
        <time>2011-03-12T16:09:50Z</time>
      </trkpt>
      <trkpt lat="45.81663" lon="6.16033">
        <ele>686.518799</ele>
        <time>2011-03-12T16:10:00Z</time>
      </trkpt>
      <trkpt lat="45.81677" lon="6.1603">
        <ele>683.153809</ele>
        <time>2011-03-12T16:10:12Z</time>
      </trkpt>
      <trkpt lat="45.8169" lon="6.16024">
        <ele>681.711914</ele>
        <time>2011-03-12T16:10:23Z</time>
      </trkpt>
      <trkpt lat="45.81704" lon="6.16019">
        <ele>679.789307</ele>
        <time>2011-03-12T16:10:34Z</time>
      </trkpt>
      <trkpt lat="45.81705" lon="6.16019">
        <ele>679.789307</ele>
        <time>2011-03-12T16:10:35Z</time>
      </trkpt>
      <trkpt lat="45.81719" lon="6.16011">
        <ele>676.905518</ele>
        <time>2011-03-12T16:10:46Z</time>
      </trkpt>
      <trkpt lat="45.81727" lon="6.16004">
        <ele>674.502197</ele>
        <time>2011-03-12T16:10:55Z</time>
      </trkpt>
      <trkpt lat="45.81736" lon="6.16001">
        <ele>674.021484</ele>
        <time>2011-03-12T16:11:03Z</time>
      </trkpt>
      <trkpt lat="45.81746" lon="6.16003">
        <ele>672.098877</ele>
        <time>2011-03-12T16:11:12Z</time>
      </trkpt>
      <trkpt lat="45.81757" lon="6.16008">
        <ele>670.656982</ele>
        <time>2011-03-12T16:11:21Z</time>
      </trkpt>
      <trkpt lat="45.81766" lon="6.16012">
        <ele>669.215088</ele>
        <time>2011-03-12T16:11:28Z</time>
      </trkpt>
      <trkpt lat="45.81776" lon="6.16015">
        <ele>668.734375</ele>
        <time>2011-03-12T16:11:36Z</time>
      </trkpt>
      <trkpt lat="45.81781" lon="6.1602">
        <ele>667.772705</ele>
        <time>2011-03-12T16:11:41Z</time>
      </trkpt>
      <trkpt lat="45.81785" lon="6.16026">
        <ele>667.772705</ele>
        <time>2011-03-12T16:11:46Z</time>
      </trkpt>
      <trkpt lat="45.81793" lon="6.1604">
        <ele>666.330811</ele>
        <time>2011-03-12T16:11:57Z</time>
      </trkpt>
      <trkpt lat="45.81799" lon="6.16048">
        <ele>665.369629</ele>
        <time>2011-03-12T16:12:05Z</time>
      </trkpt>
      <trkpt lat="45.81801" lon="6.16059">
        <ele>664.408203</ele>
        <time>2011-03-12T16:12:14Z</time>
      </trkpt>
      <trkpt lat="45.81805" lon="6.16073">
        <ele>662.485596</ele>
        <time>2011-03-12T16:12:23Z</time>
      </trkpt>
      <trkpt lat="45.81807" lon="6.16081">
        <ele>662.005127</ele>
        <time>2011-03-12T16:12:30Z</time>
      </trkpt>
      <trkpt lat="45.81811" lon="6.16093">
        <ele>661.043701</ele>
        <time>2011-03-12T16:12:40Z</time>
      </trkpt>
      <trkpt lat="45.81814" lon="6.16098">
        <ele>660.082275</ele>
        <time>2011-03-12T16:12:43Z</time>
      </trkpt>
      <trkpt lat="45.81821" lon="6.16107">
        <ele>658.640381</ele>
        <time>2011-03-12T16:12:50Z</time>
      </trkpt>
      <trkpt lat="45.81832" lon="6.16115">
        <ele>657.198486</ele>
        <time>2011-03-12T16:12:59Z</time>
      </trkpt>
      <trkpt lat="45.81834" lon="6.16117">
        <ele>656.717773</ele>
        <time>2011-03-12T16:13:00Z</time>
      </trkpt>
      <trkpt lat="45.81839" lon="6.16128">
        <ele>653.353271</ele>
        <time>2011-03-12T16:13:08Z</time>
      </trkpt>
      <trkpt lat="45.81842" lon="6.16133">
        <ele>652.391846</ele>
        <time>2011-03-12T16:13:12Z</time>
      </trkpt>
      <trkpt lat="45.81843" lon="6.16136">
        <ele>651.43042</ele>
        <time>2011-03-12T16:13:14Z</time>
      </trkpt>
      <trkpt lat="45.81853" lon="6.16143">
        <ele>649.507813</ele>
        <time>2011-03-12T16:13:24Z</time>
      </trkpt>
      <trkpt lat="45.81856" lon="6.16146">
        <ele>649.0271</ele>
        <time>2011-03-12T16:13:27Z</time>
      </trkpt>
      <trkpt lat="45.81865" lon="6.16155">
        <ele>646.624023</ele>
        <time>2011-03-12T16:13:37Z</time>
      </trkpt>
      <trkpt lat="45.81869" lon="6.1616">
        <ele>644.701172</ele>
        <time>2011-03-12T16:13:43Z</time>
      </trkpt>
      <trkpt lat="45.81875" lon="6.16168">
        <ele>643.73999</ele>
        <time>2011-03-12T16:13:50Z</time>
      </trkpt>
      <trkpt lat="45.81877" lon="6.16169">
        <ele>643.259277</ele>
        <time>2011-03-12T16:13:52Z</time>
      </trkpt>
      <trkpt lat="45.81882" lon="6.16176">
        <ele>641.33667</ele>
        <time>2011-03-12T16:13:59Z</time>
      </trkpt>
      <trkpt lat="45.81883" lon="6.16186">
        <ele>638.933594</ele>
        <time>2011-03-12T16:14:06Z</time>
      </trkpt>
      <trkpt lat="45.81882" lon="6.16195">
        <ele>637.972168</ele>
        <time>2011-03-12T16:14:13Z</time>
      </trkpt>
      <trkpt lat="45.81882" lon="6.16198">
        <ele>636.530273</ele>
        <time>2011-03-12T16:14:15Z</time>
      </trkpt>
      <trkpt lat="45.81881" lon="6.16201">
        <ele>636.049561</ele>
        <time>2011-03-12T16:14:17Z</time>
      </trkpt>
      <trkpt lat="45.8188" lon="6.16205">
        <ele>635.568604</ele>
        <time>2011-03-12T16:14:20Z</time>
      </trkpt>
      <trkpt lat="45.81882" lon="6.1622">
        <ele>634.126709</ele>
        <time>2011-03-12T16:14:28Z</time>
      </trkpt>
      <trkpt lat="45.81885" lon="6.16235">
        <ele>633.165283</ele>
        <time>2011-03-12T16:14:38Z</time>
      </trkpt>
      <trkpt lat="45.81888" lon="6.16249">
        <ele>632.684814</ele>
        <time>2011-03-12T16:14:49Z</time>
      </trkpt>
      <trkpt lat="45.81893" lon="6.16252">
        <ele>632.684814</ele>
        <time>2011-03-12T16:15:00Z</time>
      </trkpt>
      <trkpt lat="45.81898" lon="6.16256">
        <ele>632.204102</ele>
        <time>2011-03-12T16:15:12Z</time>
      </trkpt>
      <trkpt lat="45.81907" lon="6.16263">
        <ele>631.723389</ele>
        <time>2011-03-12T16:15:24Z</time>
      </trkpt>
      <trkpt lat="45.81914" lon="6.16267">
        <ele>631.24292</ele>
        <time>2011-03-12T16:15:32Z</time>
      </trkpt>
      <trkpt lat="45.81926" lon="6.16272">
        <ele>628.358887</ele>
        <time>2011-03-12T16:15:42Z</time>
      </trkpt>
      <trkpt lat="45.81935" lon="6.16279">
        <ele>626.436279</ele>
        <time>2011-03-12T16:15:51Z</time>
      </trkpt>
      <trkpt lat="45.81946" lon="6.16288">
        <ele>624.513672</ele>
        <time>2011-03-12T16:16:01Z</time>
      </trkpt>
      <trkpt lat="45.81948" lon="6.1629">
        <ele>624.032959</ele>
        <time>2011-03-12T16:16:04Z</time>
      </trkpt>
      <trkpt lat="45.81955" lon="6.163">
        <ele>621.629639</ele>
        <time>2011-03-12T16:16:13Z</time>
      </trkpt>
      <trkpt lat="45.81957" lon="6.16305">
        <ele>620.668457</ele>
        <time>2011-03-12T16:16:19Z</time>
      </trkpt>
      <trkpt lat="45.81961" lon="6.16309">
        <ele>619.226318</ele>
        <time>2011-03-12T16:16:23Z</time>
      </trkpt>
      <trkpt lat="45.81968" lon="6.16316">
        <ele>616.342285</ele>
        <time>2011-03-12T16:16:31Z</time>
      </trkpt>
      <trkpt lat="45.81976" lon="6.16325">
        <ele>613.938965</ele>
        <time>2011-03-12T16:16:39Z</time>
      </trkpt>
      <trkpt lat="45.81982" lon="6.16333">
        <ele>612.977783</ele>
        <time>2011-03-12T16:16:46Z</time>
      </trkpt>
      <trkpt lat="45.81989" lon="6.16336">
        <ele>610.574463</ele>
        <time>2011-03-12T16:16:53Z</time>
      </trkpt>
      <trkpt lat="45.81991" lon="6.16339">
        <ele>608.171387</ele>
        <time>2011-03-12T16:16:58Z</time>
      </trkpt>
      <trkpt lat="45.81994" lon="6.16342">
        <ele>606.248535</ele>
        <time>2011-03-12T16:17:03Z</time>
      </trkpt>
      <trkpt lat="45.82" lon="6.16351">
        <ele>602.883789</ele>
        <time>2011-03-12T16:17:12Z</time>
      </trkpt>
      <trkpt lat="45.82001" lon="6.16351">
        <ele>602.403076</ele>
        <time>2011-03-12T16:17:14Z</time>
      </trkpt>
      <trkpt lat="45.82007" lon="6.16351">
        <ele>600</ele>
        <time>2011-03-12T16:17:21Z</time>
      </trkpt>
      <trkpt lat="45.82009" lon="6.16355">
        <ele>599.038574</ele>
        <time>2011-03-12T16:17:27Z</time>
      </trkpt>
      <trkpt lat="45.82015" lon="6.16361">
        <ele>596.635498</ele>
        <time>2011-03-12T16:17:35Z</time>
      </trkpt>
      <trkpt lat="45.82017" lon="6.16367">
        <ele>597.115967</ele>
        <time>2011-03-12T16:17:45Z</time>
      </trkpt>
      <trkpt lat="45.82016" lon="6.16373">
        <ele>596.635498</ele>
        <time>2011-03-12T16:17:57Z</time>
      </trkpt>
      <trkpt lat="45.82014" lon="6.16384">
        <ele>597.115967</ele>
        <time>2011-03-12T16:18:06Z</time>
      </trkpt>
      <trkpt lat="45.82011" lon="6.16389">
        <ele>597.59668</ele>
        <time>2011-03-12T16:18:13Z</time>
      </trkpt>
      <trkpt lat="45.81998" lon="6.16403">
        <ele>599.038574</ele>
        <time>2011-03-12T16:18:27Z</time>
      </trkpt>
      <trkpt lat="45.8199" lon="6.16423">
        <ele>599.519287</ele>
        <time>2011-03-12T16:18:40Z</time>
      </trkpt>
      <trkpt lat="45.81979" lon="6.16438">
        <ele>600.961182</ele>
        <time>2011-03-12T16:18:53Z</time>
      </trkpt>
      <trkpt lat="45.81968" lon="6.16452">
        <ele>602.403076</ele>
        <time>2011-03-12T16:19:05Z</time>
      </trkpt>
      <trkpt lat="45.81955" lon="6.16467">
        <ele>602.883789</ele>
        <time>2011-03-12T16:19:18Z</time>
      </trkpt>
      <trkpt lat="45.81939" lon="6.16482">
        <ele>603.364502</ele>
        <time>2011-03-12T16:19:33Z</time>
      </trkpt>
      <trkpt lat="45.81924" lon="6.16497">
        <ele>603.845215</ele>
        <time>2011-03-12T16:19:47Z</time>
      </trkpt>
      <trkpt lat="45.81909" lon="6.16509">
        <ele>605.287354</ele>
        <time>2011-03-12T16:20:01Z</time>
      </trkpt>
      <trkpt lat="45.81893" lon="6.16519">
        <ele>605.768066</ele>
        <time>2011-03-12T16:20:13Z</time>
      </trkpt>
      <trkpt lat="45.81877" lon="6.16524">
        <ele>606.248535</ele>
        <time>2011-03-12T16:20:24Z</time>
      </trkpt>
      <trkpt lat="45.81859" lon="6.16532">
        <ele>606.729248</ele>
        <time>2011-03-12T16:20:39Z</time>
      </trkpt>
      <trkpt lat="45.81845" lon="6.16536">
        <ele>606.729248</ele>
        <time>2011-03-12T16:20:51Z</time>
      </trkpt>
      <trkpt lat="45.8183" lon="6.16539">
        <ele>607.209961</ele>
        <time>2011-03-12T16:21:03Z</time>
      </trkpt>
      <trkpt lat="45.81815" lon="6.16537">
        <ele>606.729248</ele>
        <time>2011-03-12T16:21:16Z</time>
      </trkpt>
      <trkpt lat="45.81804" lon="6.16533">
        <ele>606.248535</ele>
        <time>2011-03-12T16:21:25Z</time>
      </trkpt>
      <trkpt lat="45.81793" lon="6.16532">
        <ele>606.248535</ele>
        <time>2011-03-12T16:21:33Z</time>
      </trkpt>
      <trkpt lat="45.81777" lon="6.16535">
        <ele>605.768066</ele>
        <time>2011-03-12T16:21:45Z</time>
      </trkpt>
      <trkpt lat="45.81775" lon="6.16537">
        <ele>604.806641</ele>
        <time>2011-03-12T16:21:47Z</time>
      </trkpt>
      <trkpt lat="45.81772" lon="6.16544">
        <ele>604.326172</ele>
        <time>2011-03-12T16:21:52Z</time>
      </trkpt>
      <trkpt lat="45.81768" lon="6.16562">
        <ele>602.883789</ele>
        <time>2011-03-12T16:22:03Z</time>
      </trkpt>
      <trkpt lat="45.81759" lon="6.16575">
        <ele>600.480713</ele>
        <time>2011-03-12T16:22:14Z</time>
      </trkpt>
      <trkpt lat="45.8175" lon="6.16587">
        <ele>598.077393</ele>
        <time>2011-03-12T16:22:25Z</time>
      </trkpt>
      <trkpt lat="45.8175" lon="6.16593">
        <ele>597.59668</ele>
        <time>2011-03-12T16:22:28Z</time>
      </trkpt>
      <trkpt lat="45.81761" lon="6.16603">
        <ele>594.712646</ele>
        <time>2011-03-12T16:22:38Z</time>
      </trkpt>
      <trkpt lat="45.81776" lon="6.16611">
        <ele>591.828857</ele>
        <time>2011-03-12T16:22:49Z</time>
      </trkpt>
      <trkpt lat="45.81794" lon="6.16618">
        <ele>589.425537</ele>
        <time>2011-03-12T16:23:03Z</time>
      </trkpt>
      <trkpt lat="45.81806" lon="6.16622">
        <ele>588.464355</ele>
        <time>2011-03-12T16:23:13Z</time>
      </trkpt>
      <trkpt lat="45.81819" lon="6.16627">
        <ele>585.099609</ele>
        <time>2011-03-12T16:23:23Z</time>
      </trkpt>
      <trkpt lat="45.81835" lon="6.16628">
        <ele>583.657471</ele>
        <time>2011-03-12T16:23:36Z</time>
      </trkpt>
      <trkpt lat="45.81846" lon="6.16628">
        <ele>582.696289</ele>
        <time>2011-03-12T16:23:46Z</time>
      </trkpt>
      <trkpt lat="45.81865" lon="6.16629">
        <ele>581.734863</ele>
        <time>2011-03-12T16:23:59Z</time>
      </trkpt>
      <trkpt lat="45.81884" lon="6.16627">
        <ele>581.254395</ele>
        <time>2011-03-12T16:24:12Z</time>
      </trkpt>
      <trkpt lat="45.81899" lon="6.16626">
        <ele>581.734863</ele>
        <time>2011-03-12T16:24:24Z</time>
      </trkpt>
      <trkpt lat="45.81911" lon="6.16625">
        <ele>581.734863</ele>
        <time>2011-03-12T16:24:34Z</time>
      </trkpt>
      <trkpt lat="45.81925" lon="6.16621">
        <ele>579.812256</ele>
        <time>2011-03-12T16:24:44Z</time>
      </trkpt>
      <trkpt lat="45.81941" lon="6.16618">
        <ele>578.370361</ele>
        <time>2011-03-12T16:24:57Z</time>
      </trkpt>
      <trkpt lat="45.81953" lon="6.16624">
        <ele>576.928467</ele>
        <time>2011-03-12T16:25:08Z</time>
      </trkpt>
      <trkpt lat="45.81959" lon="6.16635">
        <ele>575.005859</ele>
        <time>2011-03-12T16:25:17Z</time>
      </trkpt>
      <trkpt lat="45.81965" lon="6.16649">
        <ele>572.121826</ele>
        <time>2011-03-12T16:25:27Z</time>
      </trkpt>
      <trkpt lat="45.81974" lon="6.16663">
        <ele>570.198975</ele>
        <time>2011-03-12T16:25:38Z</time>
      </trkpt>
      <trkpt lat="45.81984" lon="6.16669">
        <ele>568.75708</ele>
        <time>2011-03-12T16:25:47Z</time>
      </trkpt>
      <trkpt lat="45.81992" lon="6.16669">
        <ele>566.35376</ele>
        <time>2011-03-12T16:25:56Z</time>
      </trkpt>
      <trkpt lat="45.81997" lon="6.16666">
        <ele>565.392578</ele>
        <time>2011-03-12T16:26:03Z</time>
      </trkpt>
      <trkpt lat="45.82004" lon="6.16665">
        <ele>563.469971</ele>
        <time>2011-03-12T16:26:10Z</time>
      </trkpt>
      <trkpt lat="45.82017" lon="6.16658">
        <ele>561.06665</ele>
        <time>2011-03-12T16:26:20Z</time>
      </trkpt>
      <trkpt lat="45.82029" lon="6.16649">
        <ele>557.702148</ele>
        <time>2011-03-12T16:26:31Z</time>
      </trkpt>
      <trkpt lat="45.82037" lon="6.16655">
        <ele>556.26001</ele>
        <time>2011-03-12T16:26:40Z</time>
      </trkpt>
      <trkpt lat="45.82038" lon="6.16668">
        <ele>553.375977</ele>
        <time>2011-03-12T16:26:50Z</time>
      </trkpt>
      <trkpt lat="45.82038" lon="6.16676">
        <ele>552.414551</ele>
        <time>2011-03-12T16:26:55Z</time>
      </trkpt>
      <trkpt lat="45.82043" lon="6.16685">
        <ele>549.530762</ele>
        <time>2011-03-12T16:27:03Z</time>
      </trkpt>
      <trkpt lat="45.82055" lon="6.16682">
        <ele>546.646851</ele>
        <time>2011-03-12T16:27:14Z</time>
      </trkpt>
      <trkpt lat="45.82063" lon="6.16675">
        <ele>544.724243</ele>
        <time>2011-03-12T16:27:23Z</time>
      </trkpt>
      <trkpt lat="45.82066" lon="6.16674">
        <ele>544.243652</ele>
        <time>2011-03-12T16:27:40Z</time>
      </trkpt>
      <trkpt lat="45.82067" lon="6.16672">
        <ele>544.243652</ele>
        <time>2011-03-12T16:27:50Z</time>
      </trkpt>
      <trkpt lat="45.8207" lon="6.16669">
        <ele>542.801514</ele>
        <time>2011-03-12T16:27:59Z</time>
      </trkpt>
      <trkpt lat="45.82077" lon="6.16663">
        <ele>541.359497</ele>
        <time>2011-03-12T16:28:07Z</time>
      </trkpt>
      <trkpt lat="45.82082" lon="6.16662">
        <ele>540.398315</ele>
        <time>2011-03-12T16:28:11Z</time>
      </trkpt>
      <trkpt lat="45.82094" lon="6.16659">
        <ele>537.514282</ele>
        <time>2011-03-12T16:28:23Z</time>
      </trkpt>
      <trkpt lat="45.82105" lon="6.16661">
        <ele>536.072388</ele>
        <time>2011-03-12T16:28:35Z</time>
      </trkpt>
      <trkpt lat="45.82115" lon="6.16663">
        <ele>533.668945</ele>
        <time>2011-03-12T16:28:44Z</time>
      </trkpt>
      <trkpt lat="45.82126" lon="6.16665">
        <ele>530.785156</ele>
        <time>2011-03-12T16:28:53Z</time>
      </trkpt>
      <trkpt lat="45.82129" lon="6.16665">
        <ele>530.304443</ele>
        <time>2011-03-12T16:28:55Z</time>
      </trkpt>
      <trkpt lat="45.82143" lon="6.16665">
        <ele>528.862549</ele>
        <time>2011-03-12T16:29:06Z</time>
      </trkpt>
      <trkpt lat="45.82154" lon="6.16665">
        <ele>525.978394</ele>
        <time>2011-03-12T16:29:16Z</time>
      </trkpt>
      <trkpt lat="45.82158" lon="6.16667">
        <ele>525.017212</ele>
        <time>2011-03-12T16:29:23Z</time>
      </trkpt>
      <trkpt lat="45.82161" lon="6.16671">
        <ele>523.575195</ele>
        <time>2011-03-12T16:29:27Z</time>
      </trkpt>
      <trkpt lat="45.82162" lon="6.16681">
        <ele>522.133179</ele>
        <time>2011-03-12T16:29:34Z</time>
      </trkpt>
      <trkpt lat="45.82163" lon="6.16698">
        <ele>520.210571</ele>
        <time>2011-03-12T16:29:45Z</time>
      </trkpt>
      <trkpt lat="45.82169" lon="6.16712">
        <ele>518.768555</ele>
        <time>2011-03-12T16:29:54Z</time>
      </trkpt>
      <trkpt lat="45.82178" lon="6.16719">
        <ele>515.884644</ele>
        <time>2011-03-12T16:30:03Z</time>
      </trkpt>
      <trkpt lat="45.82193" lon="6.16723">
        <ele>513.962036</ele>
        <time>2011-03-12T16:30:15Z</time>
      </trkpt>
      <trkpt lat="45.82201" lon="6.16723">
        <ele>513.962036</ele>
        <time>2011-03-12T16:30:24Z</time>
      </trkpt>
      <trkpt lat="45.82211" lon="6.16723">
        <ele>513.000732</ele>
        <time>2011-03-12T16:30:32Z</time>
      </trkpt>
      <trkpt lat="45.8222" lon="6.16725">
        <ele>512.039429</ele>
        <time>2011-03-12T16:30:40Z</time>
      </trkpt>
      <trkpt lat="45.82233" lon="6.16726">
        <ele>510.116699</ele>
        <time>2011-03-12T16:30:51Z</time>
      </trkpt>
      <trkpt lat="45.82243" lon="6.16725">
        <ele>508.674683</ele>
        <time>2011-03-12T16:31:00Z</time>
      </trkpt>
      <trkpt lat="45.82247" lon="6.16726">
        <ele>508.194092</ele>
        <time>2011-03-12T16:31:08Z</time>
      </trkpt>
      <trkpt lat="45.82254" lon="6.16727">
        <ele>507.713501</ele>
        <time>2011-03-12T16:31:16Z</time>
      </trkpt>
      <trkpt lat="45.82266" lon="6.16723">
        <ele>506.752075</ele>
        <time>2011-03-12T16:31:26Z</time>
      </trkpt>
      <trkpt lat="45.82276" lon="6.16722">
        <ele>505.790894</ele>
        <time>2011-03-12T16:31:34Z</time>
      </trkpt>
      <trkpt lat="45.82281" lon="6.1672">
        <ele>504.829468</ele>
        <time>2011-03-12T16:31:39Z</time>
      </trkpt>
      <trkpt lat="45.82294" lon="6.16711">
        <ele>503.868164</ele>
        <time>2011-03-12T16:31:48Z</time>
      </trkpt>
      <trkpt lat="45.82303" lon="6.16705">
        <ele>502.426147</ele>
        <time>2011-03-12T16:31:55Z</time>
      </trkpt>
      <trkpt lat="45.82318" lon="6.16699">
        <ele>501.464844</ele>
        <time>2011-03-12T16:32:06Z</time>
      </trkpt>
      <trkpt lat="45.82331" lon="6.16697">
        <ele>500.50354</ele>
        <time>2011-03-12T16:32:15Z</time>
      </trkpt>
      <trkpt lat="45.82339" lon="6.16696">
        <ele>499.542236</ele>
        <time>2011-03-12T16:32:22Z</time>
      </trkpt>
      <trkpt lat="45.82348" lon="6.16696">
        <ele>499.061523</ele>
        <time>2011-03-12T16:32:30Z</time>
      </trkpt>
      <trkpt lat="45.82361" lon="6.16696">
        <ele>498.580933</ele>
        <time>2011-03-12T16:32:40Z</time>
      </trkpt>
      <trkpt lat="45.82377" lon="6.16695">
        <ele>497.619629</ele>
        <time>2011-03-12T16:32:51Z</time>
      </trkpt>
      <trkpt lat="45.82382" lon="6.16697">
        <ele>497.138916</ele>
        <time>2011-03-12T16:32:55Z</time>
      </trkpt>
      <trkpt lat="45.82392" lon="6.16701">
        <ele>496.177734</ele>
        <time>2011-03-12T16:33:03Z</time>
      </trkpt>
      <trkpt lat="45.8241" lon="6.16705">
        <ele>494.255005</ele>
        <time>2011-03-12T16:33:17Z</time>
      </trkpt>
      <trkpt lat="45.82426" lon="6.16706">
        <ele>493.774292</ele>
        <time>2011-03-12T16:33:29Z</time>
      </trkpt>
      <trkpt lat="45.82444" lon="6.16712">
        <ele>492.812988</ele>
        <time>2011-03-12T16:33:43Z</time>
      </trkpt>
      <trkpt lat="45.82461" lon="6.16718">
        <ele>492.332397</ele>
        <time>2011-03-12T16:33:57Z</time>
      </trkpt>
      <trkpt lat="45.82475" lon="6.16726">
        <ele>491.370972</ele>
        <time>2011-03-12T16:34:08Z</time>
      </trkpt>
      <trkpt lat="45.82492" lon="6.1674">
        <ele>489.448364</ele>
        <time>2011-03-12T16:34:23Z</time>
      </trkpt>
      <trkpt lat="45.82503" lon="6.16753">
        <ele>488.967773</ele>
        <time>2011-03-12T16:34:34Z</time>
      </trkpt>
      <trkpt lat="45.82517" lon="6.1677">
        <ele>487.525635</ele>
        <time>2011-03-12T16:34:49Z</time>
      </trkpt>
      <trkpt lat="45.82531" lon="6.16772">
        <ele>486.564453</ele>
        <time>2011-03-12T16:35:00Z</time>
      </trkpt>
      <trkpt lat="45.82543" lon="6.16769">
        <ele>486.08374</ele>
        <time>2011-03-12T16:35:10Z</time>
      </trkpt>
      <trkpt lat="45.82553" lon="6.16759">
        <ele>485.122437</ele>
        <time>2011-03-12T16:35:20Z</time>
      </trkpt>
      <trkpt lat="45.82559" lon="6.16742">
        <ele>484.641846</ele>
        <time>2011-03-12T16:35:29Z</time>
      </trkpt>
      <trkpt lat="45.82562" lon="6.16718">
        <ele>484.161133</ele>
        <time>2011-03-12T16:35:42Z</time>
      </trkpt>
      <trkpt lat="45.82564" lon="6.16688">
        <ele>483.199829</ele>
        <time>2011-03-12T16:35:58Z</time>
      </trkpt>
      <trkpt lat="45.82567" lon="6.16669">
        <ele>482.719238</ele>
        <time>2011-03-12T16:36:10Z</time>
      </trkpt>
      <trkpt lat="45.82576" lon="6.1667">
        <ele>482.238525</ele>
        <time>2011-03-12T16:36:18Z</time>
      </trkpt>
      <trkpt lat="45.82591" lon="6.16673">
        <ele>481.277222</ele>
        <time>2011-03-12T16:36:30Z</time>
      </trkpt>
      <trkpt lat="45.82596" lon="6.16673">
        <ele>481.277222</ele>
        <time>2011-03-12T16:36:34Z</time>
      </trkpt>
      <trkpt lat="45.82604" lon="6.16645">
        <ele>481.757813</ele>
        <time>2011-03-12T16:36:49Z</time>
      </trkpt>
      <trkpt lat="45.8261" lon="6.16622">
        <ele>481.757813</ele>
        <time>2011-03-12T16:37:04Z</time>
      </trkpt>
      <trkpt lat="45.82615" lon="6.16601">
        <ele>481.277222</ele>
        <time>2011-03-12T16:37:17Z</time>
      </trkpt>
      <trkpt lat="45.82621" lon="6.16579">
        <ele>480.796631</ele>
        <time>2011-03-12T16:37:30Z</time>
      </trkpt>
      <trkpt lat="45.82625" lon="6.16567">
        <ele>480.315918</ele>
        <time>2011-03-12T16:37:38Z</time>
      </trkpt>
      <trkpt lat="45.8263" lon="6.16547">
        <ele>479.835083</ele>
        <time>2011-03-12T16:37:49Z</time>
      </trkpt>
      <trkpt lat="45.82635" lon="6.16525">
        <ele>479.835083</ele>
        <time>2011-03-12T16:38:00Z</time>
      </trkpt>
      <trkpt lat="45.82642" lon="6.165">
        <ele>479.835083</ele>
        <time>2011-03-12T16:38:13Z</time>
      </trkpt>
      <trkpt lat="45.82646" lon="6.16474">
        <ele>479.354492</ele>
        <time>2011-03-12T16:38:28Z</time>
      </trkpt>
      <trkpt lat="45.8265" lon="6.16452">
        <ele>479.835083</ele>
        <time>2011-03-12T16:38:41Z</time>
      </trkpt>
      <trkpt lat="45.82654" lon="6.16428">
        <ele>480.315918</ele>
        <time>2011-03-12T16:38:54Z</time>
      </trkpt>
      <trkpt lat="45.82656" lon="6.16409">
        <ele>480.796631</ele>
        <time>2011-03-12T16:39:05Z</time>
      </trkpt>
      <trkpt lat="45.82658" lon="6.16383">
        <ele>480.796631</ele>
        <time>2011-03-12T16:39:19Z</time>
      </trkpt>
      <trkpt lat="45.82659" lon="6.16356">
        <ele>481.277222</ele>
        <time>2011-03-12T16:39:34Z</time>
      </trkpt>
      <trkpt lat="45.82661" lon="6.16331">
        <ele>482.719238</ele>
        <time>2011-03-12T16:39:48Z</time>
      </trkpt>
      <trkpt lat="45.82666" lon="6.16306">
        <ele>483.199829</ele>
        <time>2011-03-12T16:40:02Z</time>
      </trkpt>
      <trkpt lat="45.8267" lon="6.16287">
        <ele>484.161133</ele>
        <time>2011-03-12T16:40:13Z</time>
      </trkpt>
      <trkpt lat="45.82675" lon="6.16263">
        <ele>485.122437</ele>
        <time>2011-03-12T16:40:27Z</time>
      </trkpt>
      <trkpt lat="45.8268" lon="6.16234">
        <ele>485.603027</ele>
        <time>2011-03-12T16:40:43Z</time>
      </trkpt>
      <trkpt lat="45.82685" lon="6.1621">
        <ele>485.603027</ele>
        <time>2011-03-12T16:40:56Z</time>
      </trkpt>
      <trkpt lat="45.82691" lon="6.16187">
        <ele>485.603027</ele>
        <time>2011-03-12T16:41:09Z</time>
      </trkpt>
      <trkpt lat="45.82695" lon="6.16166">
        <ele>485.603027</ele>
        <time>2011-03-12T16:41:21Z</time>
      </trkpt>
      <trkpt lat="45.82699" lon="6.1614">
        <ele>486.08374</ele>
        <time>2011-03-12T16:41:35Z</time>
      </trkpt>
      <trkpt lat="45.82703" lon="6.16114">
        <ele>486.08374</ele>
        <time>2011-03-12T16:41:49Z</time>
      </trkpt>
      <trkpt lat="45.82704" lon="6.16099">
        <ele>486.564453</ele>
        <time>2011-03-12T16:41:57Z</time>
      </trkpt>
      <trkpt lat="45.82706" lon="6.16081">
        <ele>487.045044</ele>
        <time>2011-03-12T16:42:06Z</time>
      </trkpt>
      <trkpt lat="45.82709" lon="6.16057">
        <ele>487.525635</ele>
        <time>2011-03-12T16:42:19Z</time>
      </trkpt>
      <trkpt lat="45.82712" lon="6.16035">
        <ele>488.00647</ele>
        <time>2011-03-12T16:42:31Z</time>
      </trkpt>
      <trkpt lat="45.82712" lon="6.16011">
        <ele>488.487183</ele>
        <time>2011-03-12T16:42:43Z</time>
      </trkpt>
      <trkpt lat="45.82707" lon="6.15986">
        <ele>488.487183</ele>
        <time>2011-03-12T16:42:57Z</time>
      </trkpt>
      <trkpt lat="45.82705" lon="6.15979">
        <ele>488.967773</ele>
        <time>2011-03-12T16:43:01Z</time>
      </trkpt>
      <trkpt lat="45.82698" lon="6.1595">
        <ele>490.890381</ele>
        <time>2011-03-12T16:43:17Z</time>
      </trkpt>
      <trkpt lat="45.82695" lon="6.15928">
        <ele>490.40979</ele>
        <time>2011-03-12T16:43:29Z</time>
      </trkpt>
      <trkpt lat="45.82696" lon="6.15903">
        <ele>490.890381</ele>
        <time>2011-03-12T16:43:42Z</time>
      </trkpt>
      <trkpt lat="45.82699" lon="6.15878">
        <ele>489.929077</ele>
        <time>2011-03-12T16:43:55Z</time>
      </trkpt>
      <trkpt lat="45.827" lon="6.15853">
        <ele>488.967773</ele>
        <time>2011-03-12T16:44:08Z</time>
      </trkpt>
      <trkpt lat="45.82703" lon="6.15827">
        <ele>488.487183</ele>
        <time>2011-03-12T16:44:22Z</time>
      </trkpt>
      <trkpt lat="45.82707" lon="6.15802">
        <ele>488.487183</ele>
        <time>2011-03-12T16:44:36Z</time>
      </trkpt>
      <trkpt lat="45.8271" lon="6.15777">
        <ele>488.967773</ele>
        <time>2011-03-12T16:44:50Z</time>
      </trkpt>
      <trkpt lat="45.82714" lon="6.15752">
        <ele>488.487183</ele>
        <time>2011-03-12T16:45:04Z</time>
      </trkpt>
      <trkpt lat="45.82718" lon="6.15727">
        <ele>488.967773</ele>
        <time>2011-03-12T16:45:18Z</time>
      </trkpt>
      <trkpt lat="45.82721" lon="6.15703">
        <ele>488.967773</ele>
        <time>2011-03-12T16:45:32Z</time>
      </trkpt>
      <trkpt lat="45.82724" lon="6.15682">
        <ele>488.967773</ele>
        <time>2011-03-12T16:45:44Z</time>
      </trkpt>
      <trkpt lat="45.8273" lon="6.15661">
        <ele>488.487183</ele>
        <time>2011-03-12T16:45:57Z</time>
      </trkpt>
      <trkpt lat="45.82736" lon="6.1564">
        <ele>488.487183</ele>
        <time>2011-03-12T16:46:10Z</time>
      </trkpt>
      <trkpt lat="45.82745" lon="6.15618">
        <ele>488.00647</ele>
        <time>2011-03-12T16:46:23Z</time>
      </trkpt>
      <trkpt lat="45.82747" lon="6.15598">
        <ele>488.487183</ele>
        <time>2011-03-12T16:46:35Z</time>
      </trkpt>
      <trkpt lat="45.82739" lon="6.15579">
        <ele>488.487183</ele>
        <time>2011-03-12T16:46:48Z</time>
      </trkpt>
      <trkpt lat="45.82728" lon="6.15558">
        <ele>488.967773</ele>
        <time>2011-03-12T16:47:02Z</time>
      </trkpt>
      <trkpt lat="45.82724" lon="6.1555">
        <ele>489.448364</ele>
        <time>2011-03-12T16:47:08Z</time>
      </trkpt>
      <trkpt lat="45.82722" lon="6.15544">
        <ele>488.967773</ele>
        <time>2011-03-12T16:47:12Z</time>
      </trkpt>
      <trkpt lat="45.82712" lon="6.15525">
        <ele>489.929077</ele>
        <time>2011-03-12T16:47:26Z</time>
      </trkpt>
      <trkpt lat="45.82702" lon="6.15505">
        <ele>490.890381</ele>
        <time>2011-03-12T16:47:39Z</time>
      </trkpt>
      <trkpt lat="45.82693" lon="6.15486">
        <ele>491.370972</ele>
        <time>2011-03-12T16:47:52Z</time>
      </trkpt>
      <trkpt lat="45.82684" lon="6.15467">
        <ele>491.851685</ele>
        <time>2011-03-12T16:48:05Z</time>
      </trkpt>
      <trkpt lat="45.82673" lon="6.15445">
        <ele>492.812988</ele>
        <time>2011-03-12T16:48:20Z</time>
      </trkpt>
      <trkpt lat="45.82663" lon="6.15428">
        <ele>493.293579</ele>
        <time>2011-03-12T16:48:34Z</time>
      </trkpt>
      <trkpt lat="45.82653" lon="6.15412">
        <ele>493.774292</ele>
        <time>2011-03-12T16:48:47Z</time>
      </trkpt>
      <trkpt lat="45.82645" lon="6.15399">
        <ele>493.774292</ele>
        <time>2011-03-12T16:48:58Z</time>
      </trkpt>
      <trkpt lat="45.82639" lon="6.15386">
        <ele>493.774292</ele>
        <time>2011-03-12T16:49:07Z</time>
      </trkpt>
      <trkpt lat="45.82632" lon="6.1537">
        <ele>493.774292</ele>
        <time>2011-03-12T16:49:18Z</time>
      </trkpt>
      <trkpt lat="45.82623" lon="6.15348">
        <ele>494.255005</ele>
        <time>2011-03-12T16:49:33Z</time>
      </trkpt>
      <trkpt lat="45.82617" lon="6.15327">
        <ele>494.735596</ele>
        <time>2011-03-12T16:49:46Z</time>
      </trkpt>
      <trkpt lat="45.8261" lon="6.15304">
        <ele>495.696899</ele>
        <time>2011-03-12T16:49:59Z</time>
      </trkpt>
      <trkpt lat="45.82608" lon="6.15286">
        <ele>495.696899</ele>
        <time>2011-03-12T16:50:09Z</time>
      </trkpt>
      <trkpt lat="45.82604" lon="6.15268">
        <ele>496.177734</ele>
        <time>2011-03-12T16:50:20Z</time>
      </trkpt>
      <trkpt lat="45.82604" lon="6.15247">
        <ele>496.658325</ele>
        <time>2011-03-12T16:50:32Z</time>
      </trkpt>
      <trkpt lat="45.82597" lon="6.15225">
        <ele>497.138916</ele>
        <time>2011-03-12T16:50:45Z</time>
      </trkpt>
      <trkpt lat="45.82595" lon="6.15205">
        <ele>497.138916</ele>
        <time>2011-03-12T16:50:56Z</time>
      </trkpt>
      <trkpt lat="45.82587" lon="6.15186">
        <ele>497.619629</ele>
        <time>2011-03-12T16:51:08Z</time>
      </trkpt>
      <trkpt lat="45.82582" lon="6.15169">
        <ele>497.619629</ele>
        <time>2011-03-12T16:51:19Z</time>
      </trkpt>
      <trkpt lat="45.82575" lon="6.15155">
        <ele>498.100342</ele>
        <time>2011-03-12T16:51:30Z</time>
      </trkpt>
      <trkpt lat="45.82566" lon="6.15145">
        <ele>498.100342</ele>
        <time>2011-03-12T16:51:39Z</time>
      </trkpt>
      <trkpt lat="45.8256" lon="6.15138">
        <ele>498.100342</ele>
        <time>2011-03-12T16:51:48Z</time>
      </trkpt>
    </trkseg>
  </trk>
</gpx>